TROPICAL DEPRESSION LABUYO :: POST-OBSERVATION RAW DATA >>
-------------------------------------------------------------------------------------
Station: Typhoon2000.com AUTOMATED WEATHER STATION (AWS) | DAVIS WIRELESS VANTAGE PRO 
Location: San Felipe, Naga City, Philippines
Lat/Lon: 1338'59"N / 12313'00"E 
View: Graphical Version
=====================================================================================

                  Temp     Hi    Low   Out    Dew  Wind  Wind  Wind    Hi    Hi   Wind   Heat    THW                Rain    Heat    Cool    In     In    In     In   Wind  Wind    ISS   Arc.
  Date    Time     Out   Temp   Temp   Hum    Pt. Speed   Dir   Run Speed   Dir  Chill  Index  Index   Bar    Rain  Rate    D-D     D-D    Temp   Hum    Dew   Heat  Samp   Tx   Recept  Int.
-----------------------------------------------------------------------------------------------------------------------------------------------------------------------------------------------
 9/19/05 12:00a   26.2   26.2   26.2    89   24.2   0.0   ---  0.00   0.0   ---   26.2   29.3   29.3  1012.5  0.00   1.0   0.000   0.027   28.9    87   26.5   36.1   114    1    100.0    5 
 9/19/05 12:05a   26.1   26.2   26.1    89   24.1   0.0   ---  0.00   0.0   ---   26.1   29.1   29.1  1012.5  0.00   0.0   0.000   0.027   28.8    88   26.6   35.9   113    1     99.1    5 
 9/19/05 12:10a   26.1   26.1   26.1    90   24.3   0.0   ---  0.00   0.0   ---   26.1   29.2   29.2  1012.5  0.00   0.0   0.000   0.027   28.8    88   26.6   35.9   113    1     99.1    5 
 9/19/05 12:15a   26.0   26.1   25.9    90   24.2   0.0   ---  0.00   0.0   ---   26.0   29.1   29.1  1012.1  0.00   0.0   0.000   0.027   28.7    88   26.5   35.7   113    1     99.1    5 
 9/19/05 12:20a   25.9   25.9   25.8    90   24.1   0.0   ---  0.00   0.0   ---   25.9   28.8   28.8  1012.1  0.00   0.0   0.000   0.026   28.7    88   26.5   35.6   113    1     99.1    5 
 9/19/05 12:25a   25.8   25.8   25.8    90   24.1   0.0   ---  0.00   0.0   ---   25.8   28.8   28.8  1012.1  0.00   0.0   0.000   0.026   28.7    88   26.5   35.6   114    1    100.0    5 
 9/19/05 12:30a   25.8   25.8   25.8    90   24.0   0.0     N  0.00   1.6     N   25.8   28.7   28.7  1011.7  0.00   0.0   0.000   0.026   28.6    88   26.4   35.2   114    1    100.0    5 
 9/19/05 12:35a   25.7   25.8   25.7    91   24.1   0.0     N  0.00   1.6     N   25.7   28.5   28.5  1011.7  0.00   0.0   0.000   0.025   28.6    88   26.4   35.2   114    1    100.0    5 
 9/19/05 12:40a   25.7   25.7   25.6    91   24.1   0.0   NNW  0.00   3.2   NNW   25.7   28.5   28.5  1011.7  0.00   0.0   0.000   0.025   28.5    88   26.3   35.1   114    1    100.0    5 
 9/19/05 12:45a   25.6   25.6   25.6    91   24.0   0.0   ---  0.00   0.0   ---   25.6   28.3   28.3  1011.6  0.00   0.0   0.000   0.025   28.4    88   26.3   34.8   113    1     99.1    5 
 9/19/05 12:50a   25.6   25.6   25.6    91   24.0   0.0   NNW  0.00   1.6   NNW   25.6   28.3   28.3  1011.6  0.00   0.0   0.000   0.025   28.4    88   26.3   34.8   114    1    100.0    5 
 9/19/05 12:55a   25.4   25.6   25.4    91   23.9   0.0   ---  0.00   0.0   ---   25.4   28.1   28.1  1011.6  0.00   0.0   0.000   0.025   28.4    89   26.4   34.9   114    1    100.0    5 
 9/19/05  1:00a   25.4   25.4   25.4    91   23.9   0.0   ---  0.00   0.0   ---   25.4   28.1   28.1  1011.2  0.00   0.0   0.000   0.025   28.3    89   26.3   34.7   114    1    100.0    5 
 9/19/05  1:05a   25.4   25.4   25.3    91   23.8   0.0   ---  0.00   0.0   ---   25.4   28.0   28.0  1011.2  0.00   0.0   0.000   0.024   28.2    89   26.2   34.4   114    1    100.0    5 
 9/19/05  1:10a   25.3   25.3   25.3    91   23.8   0.0   ---  0.00   0.0   ---   25.3   27.9   27.9  1011.2  0.00   0.0   0.000   0.024   28.2    89   26.2   34.4   114    1    100.0    5 
 9/19/05  1:15a   25.3   25.3   25.3    92   23.9   0.0   NNW  0.00   1.6   NNW   25.3   27.9   27.9  1011.0  0.00   0.0   0.000   0.024   28.2    89   26.2   34.2   114    1    100.0    5 
 9/19/05  1:20a   25.3   25.3   25.3    92   23.9   0.0   ---  0.00   0.0   ---   25.3   27.8   27.8  1011.0  0.00   0.0   0.000   0.024   28.1    89   26.1   34.1   114    1    100.0    5 
 9/19/05  1:25a   25.3   25.3   25.3    92   23.9   0.0   ---  0.00   0.0   ---   25.3   27.8   27.8  1011.0  0.00   0.0   0.000   0.024   28.1    89   26.1   34.1   114    1    100.0    5 
 9/19/05  1:30a   25.3   25.3   25.2    92   23.9   0.0    NW  0.00   3.2   NNW   25.3   27.8   27.8  1010.5  0.00   0.0   0.000   0.024   28.1    89   26.1   34.1   114    1    100.0    5 
 9/19/05  1:35a   25.2   25.3   25.2    91   23.6   0.0    NW  0.00   3.2    NW   25.2   27.6   27.6  1010.5  0.00   0.0   0.000   0.024   28.1    89   26.1   34.1   114    1    100.0    5 
 9/19/05  1:40a   25.2   25.2   25.2    91   23.6   0.0    NW  0.00   1.6    NW   25.2   27.6   27.6  1010.5  0.00   0.0   0.000   0.024   28.1    89   26.1   33.9   114    1    100.0    5 
 9/19/05  1:45a   25.2   25.2   25.2    91   23.6   0.0    NW  0.00   1.6    NW   25.2   27.6   27.6  1010.8  0.25   0.0   0.000   0.024   28.0    89   26.0   33.8   114    1    100.0    5 
 9/19/05  1:50a   25.2   25.2   25.2    91   23.6   1.6   NNW  0.13   4.8   NNW   25.2   27.6   27.6  1010.8  0.00   0.0   0.000   0.024   28.0    89   26.0   33.8   114    1    100.0    5 
 9/19/05  1:55a   25.2   25.2   25.2    91   23.6   0.0   NNW  0.00   3.2   NNW   25.2   27.6   27.6  1010.8  0.00   0.0   0.000   0.024   27.9    89   26.0   33.7   114    1    100.0    5 
 9/19/05  2:00a   25.2   25.2   25.2    91   23.6   0.0   NNW  0.00   3.2   NNW   25.2   27.6   27.6  1010.8  0.00   0.0   0.000   0.024   27.9    90   26.1   33.7   114    1    100.0    5 
 9/19/05  2:05a   25.2   25.2   25.2    91   23.6   1.6   NNW  0.13   4.8   NNW   25.2   27.6   27.6  1010.8  0.00   0.0   0.000   0.024   27.9    90   26.1   33.7   114    1    100.0    5 
 9/19/05  2:10a   25.2   25.2   25.2    91   23.6   1.6   NNW  0.13   4.8   NNW   25.2   27.6   27.6  1010.8  0.00   0.0   0.000   0.024   27.9    89   25.9   33.5   112    1     98.2    5 
 9/19/05  2:15a   25.2   25.2   25.2    91   23.6   1.6     N  0.13   8.0   NNW   25.2   27.6   27.6  1010.9  0.00   0.0   0.000   0.024   27.8    89   25.9   33.3   114    1    100.0    5 
 9/19/05  2:20a   25.2   25.2   25.2    91   23.6   3.2     N  0.27   9.7   NNW   25.2   27.6   27.6  1010.9  0.00   0.0   0.000   0.024   27.8    90   26.0   33.4   113    1     99.1    5 
 9/19/05  2:25a   25.2   25.2   25.2    91   23.6   0.0     N  0.00   3.2     N   25.2   27.6   27.6  1010.9  0.00   0.0   0.000   0.024   27.8    90   26.0   33.4   114    1    100.0    5 
 9/19/05  2:30a   25.2   25.3   25.2    91   23.6   1.6     N  0.13   4.8     N   25.2   27.7   27.7  1010.9  0.00   0.0   0.000   0.024   27.8    90   26.0   33.4   114    1    100.0    5 
 9/19/05  2:35a   25.3   25.3   25.3    91   23.7   4.8     N  0.40   9.7     N   25.3   27.8   27.8  1010.9  0.00   0.0   0.000   0.024   27.7    90   25.9   33.2   114    1    100.0    5 
 9/19/05  2:40a   25.3   25.3   25.1    90   23.5  11.3   NNE  0.94  32.2   NNE   25.3   27.7   27.7  1010.9  1.78  67.1   0.000   0.024   27.7    90   25.9   33.2   114    1    100.0    5 
 9/19/05  2:45a   24.8   25.1   24.6    90   23.0  14.5   NNE  1.21  25.7     N   24.1   26.9   26.2  1011.4  7.11 137.9   0.000   0.022   27.7    90   25.9   33.2   114    1    100.0    5 
 9/19/05  2:50a   24.4   24.6   24.4    91   22.8  17.7     N  1.48  38.6     N   23.1   26.4   25.1  1011.4  6.60 166.4   0.000   0.021   27.7    88   25.6   32.8   113    1     99.1    5 
 9/19/05  2:55a   24.4   24.4   24.3    91   22.8  14.5    NW  1.21  32.2    NW   23.7   26.4   25.7  1011.4  3.56  82.3   0.000   0.021   27.8    88   25.6   33.0   110    1     96.5    5 
 9/19/05  3:00a   24.2   24.3   24.2    91   22.7  12.9    NW  1.07  25.7    NW   23.9   26.2   25.9  1011.4  4.06  85.1   0.000   0.020   27.8    87   25.4   32.8   109    1     95.6    5 
 9/19/05  3:05a   24.2   24.2   24.2    91   22.6   9.7    NW  0.80  19.3    NW   24.2   26.1   26.1  1011.4  1.27  25.9   0.000   0.020   27.8    87   25.4   32.8    98    1     86.0    5 
 9/19/05  3:10a   24.1   24.2   24.1    92   22.7   8.0    NW  0.67  16.1   WNW   24.1   26.1   26.1  1011.4  1.78  42.9   0.000   0.020   27.9    86   25.3   32.9    81    1     71.1    5 
 9/19/05  3:15a   24.1   24.1   24.1    92   22.7   4.8   WNW  0.40  16.1     W   24.1   26.1   26.1  1011.1  1.02  15.5   0.000   0.020   27.9    86   25.3   32.9   110    1     96.5    5 
 9/19/05  3:20a   24.0   24.1   24.0    92   22.6   3.2    NW  0.27   9.7    NW   24.0   26.0   26.0  1011.1  0.76  12.4   0.000   0.020   27.9    86   25.3   32.9   114    1    100.0    5 
 9/19/05  3:25a   24.0   24.0   24.0    92   22.6   3.2     W  0.27   9.7    NW   24.0   26.0   26.0  1011.1  0.76  13.0   0.000   0.020   27.9    86   25.3   32.9   114    1    100.0    5 
 9/19/05  3:30a   24.0   24.0   24.0    92   22.6   4.8     N  0.40   9.7     N   24.0   26.0   26.0  1011.8  3.56 116.1   0.000   0.020   27.9    86   25.3   32.9   101    1     88.6    5 
 9/19/05  3:35a   24.0   24.1   24.0    92   22.6   6.4     N  0.54  11.3   NNW   24.0   26.0   26.0  1011.8  6.86 135.4   0.000   0.020   27.9    86   25.3   32.9   109    1     95.6    5 
 9/19/05  3:40a   24.1   24.1   24.0    92   22.7   8.0     N  0.67  19.3     N   24.1   26.1   26.1  1011.8  4.32 103.1   0.000   0.020   27.9    86   25.3   32.9   100    1     87.7    5 
 9/19/05  3:45a   23.8   24.0   23.8    92   22.5   9.7     N  0.80  20.9    NW   23.8   25.7   25.7  1011.5  0.76  20.6   0.000   0.019   27.9    86   25.3   32.9   108    1     94.7    5 
 9/19/05  3:50a   23.8   23.8   23.8    92   22.4   6.4   NNW  0.54  16.1     N   23.8   25.6   25.6  1011.5  0.76  11.4   0.000   0.019   27.9    86   25.3   32.9   112    1     98.2    5 
 9/19/05  3:55a   23.8   23.9   23.8    92   22.5   1.6   WNW  0.13   9.7     N   23.8   25.7   25.7  1011.5  0.76  11.4   0.000   0.019   27.9    85   25.1   32.7   114    1    100.0    5 
 9/19/05  4:00a   23.9   24.0   23.9    92   22.5   3.2   WNW  0.27  11.3   WNW   23.9   25.8   25.8  1011.3  0.51  11.4   0.000   0.019   27.9    85   25.1   32.7   114    1    100.0    5 
 9/19/05  4:05a   24.0   24.0   24.0    92   22.6   3.2     W  0.27   9.7   WSW   24.0   26.0   26.0  1011.3  0.76   8.9   0.000   0.020   27.9    85   25.1   32.7   114    1    100.0    5 
 9/19/05  4:10a   24.1   24.1   24.0    92   22.7   3.2   WNW  0.27   8.0     W   24.1   26.1   26.1  1011.3  0.25   7.6   0.000   0.020   28.0    85   25.2   33.1   114    1    100.0    5 
 9/19/05  4:15a   24.1   24.1   24.1    93   22.9   1.6   WNW  0.13   9.7   WNW   24.1   26.1   26.1  1011.1  0.00   1.8   0.000   0.020   28.0    85   25.2   33.1   114    1    100.0    5 
 9/19/05  4:20a   24.1   24.1   24.1    93   22.9   3.2     W  0.27  11.3   WSW   24.1   26.1   26.1  1011.1  0.25   1.8   0.000   0.020   28.0    85   25.2   33.1   114    1    100.0    5 
 9/19/05  4:25a   24.1   24.1   24.1    93   22.9   6.4     W  0.54  14.5     W   24.1   26.1   26.1  1011.1  0.00   1.5   0.000   0.020   28.0    85   25.2   33.1   114    1    100.0    5 
 9/19/05  4:30a   24.2   24.2   24.1    93   23.0   6.4     W  0.54  16.1   WSW   24.2   26.2   26.2  1010.8  0.00   1.3   0.000   0.020   28.0    85   25.2   33.1   114    1    100.0    5 
 9/19/05  4:35a   24.2   24.2   24.2    93   23.0   6.4     W  0.54  16.1     W   24.2   26.2   26.2  1010.8  0.00   0.0   0.000   0.020   27.9    85   25.1   32.7   114    1    100.0    5 
 9/19/05  4:40a   24.2   24.3   24.2    93   23.0   6.4     W  0.54  17.7     W   24.2   26.2   26.2  1010.8  0.00   0.0   0.000   0.020   27.8    86   25.2   32.6   114    1    100.0    5 
 9/19/05  4:45a   24.3   24.3   24.3    93   23.1   6.4     W  0.54  16.1   WSW   24.3   26.3   26.3  1010.5  0.25   0.0   0.000   0.021   27.7    86   25.2   32.5   114    1    100.0    5 
 9/19/05  4:50a   24.3   24.3   24.3    93   23.1   9.7     W  0.80  20.9     W   24.3   26.3   26.3  1010.5  0.00   0.0   0.000   0.021   27.6    87   25.3   32.4   114    1    100.0    5 
 9/19/05  4:55a   24.3   24.3   24.3    93   23.1   6.4   WNW  0.54  19.3   WSW   24.3   26.3   26.3  1010.5  0.25   1.8   0.000   0.021   27.6    87   25.2   32.2   114    1    100.0    5 
 9/19/05  5:00a   24.3   24.3   24.3    93   23.1   4.8    NW  0.40   9.7     W   24.3   26.3   26.3  1010.8  0.00   1.8   0.000   0.021   27.4    87   25.1   31.9   113    1     99.1    5 
 9/19/05  5:05a   24.3   24.3   24.3    93   23.1   6.4   WNW  0.54  12.9    NW   24.3   26.3   26.3  1010.8  0.51   1.8   0.000   0.021   27.4    87   25.0   31.8   112    1     98.2    5 
 9/19/05  5:10a   24.3   24.3   24.3    93   23.1   3.2   WNW  0.27   9.7    NW   24.3   26.3   26.3  1010.8  1.02  18.8   0.000   0.021   27.4    87   25.0   31.8   113    1     99.1    5 
 9/19/05  5:15a   24.3   24.3   24.3    93   23.1   3.2   WNW  0.27   9.7   WNW   24.3   26.3   26.3  1011.0  1.27  38.6   0.000   0.021   27.3    88   25.1   31.6   111    1     97.4    5 
 9/19/05  5:20a   24.3   24.3   24.3    93   23.1   1.6    NW  0.13   4.8    NW   24.3   26.3   26.3  1011.0  1.27  38.6   0.000   0.021   27.3    88   25.1   31.6   109    1     95.6    5 
 9/19/05  5:25a   24.3   24.3   24.3    93   23.1   4.8     W  0.40  12.9     W   24.3   26.3   26.3  1011.0  1.27  30.2   0.000   0.021   27.3    88   25.1   31.6   110    1     96.5    5 
 9/19/05  5:30a   24.3   24.3   24.3    93   23.1   8.0     W  0.67  17.7   WSW   24.3   26.3   26.3  1011.0  0.25  14.5   0.000   0.021   27.2    88   25.0   31.3   113    1     99.1    5 
 9/19/05  5:35a   24.3   24.3   24.3    93   23.1   8.0   WNW  0.67  17.7   WSW   24.3   26.3   26.3  1011.0  0.00   1.5   0.000   0.021   27.2    89   25.2   31.5   113    1     99.1    5 
 9/19/05  5:40a   24.2   24.3   24.2    93   23.0   6.4   WNW  0.54  16.1    NW   24.2   26.3   26.3  1011.0  0.25   1.5   0.000   0.020   27.2    89   25.2   31.5   114    1    100.0    5 
 9/19/05  5:45a   24.2   24.2   24.2    93   23.0   6.4     W  0.54  17.7     W   24.2   26.2   26.2  1011.0  0.51   5.3   0.000   0.020   27.1    89   25.1   31.2   114    1    100.0    5 
 9/19/05  5:50a   24.2   24.2   24.2    93   23.0   4.8     W  0.40  11.3   WNW   24.2   26.2   26.2  1011.0  1.52  46.0   0.000   0.020   27.1    89   25.1   31.2   107    1     93.9    5 
 9/19/05  5:55a   24.2   24.2   24.2    93   23.0   4.8     W  0.40  11.3   WSW   24.2   26.2   26.2  1011.0  2.03  53.8   0.000   0.020   27.1    89   25.1   31.2   101    1     88.6    5 
 9/19/05  6:00a   24.2   24.2   24.2    93   23.0   6.4     W  0.54  12.9     W   24.2   26.2   26.2  1011.0  0.00   2.8   0.000   0.020   27.1    89   25.1   31.2   114    1    100.0    5 
 9/19/05  6:05a   24.2   24.2   24.2    93   23.0   4.8     W  0.40  12.9   WNW   24.2   26.2   26.2  1011.0  0.25   2.8   0.000   0.020   27.2    89   25.2   31.5   114    1    100.0    5 
 9/19/05  6:10a   24.1   24.2   24.1    93   22.9   6.4   WNW  0.54  16.1    NW   24.1   26.2   26.2  1011.0  0.25   3.3   0.000   0.020   27.3    89   25.3   31.8   114    1    100.0    5 
 9/19/05  6:15a   24.1   24.1   24.1    93   22.9   8.0    NW  0.67  16.1    NW   24.1   26.1   26.1  1011.1  0.25   3.3   0.000   0.020   27.3    89   25.3   31.8   113    1     99.1    5 
 9/19/05  6:20a   24.1   24.1   24.0    93   22.9   8.0   WNW  0.67  19.3     N   24.1   26.1   26.1  1011.1  1.02  31.0   0.000   0.020   27.3    89   25.4   31.9   113    1     99.1    5 
 9/19/05  6:25a   24.0   24.0   24.0    93   22.8   6.4   WNW  0.54  12.9   NNW   24.0   26.0   26.0  1011.1  0.25  13.0   0.000   0.020   27.4    88   25.2   31.9   114    1    100.0    5 
 9/19/05  6:30a   23.9   24.0   23.9    93   22.7   4.8    NW  0.40   9.7    NW   23.9   25.9   25.9  1011.0  0.00   2.3   0.000   0.019   27.4    88   25.2   31.9   114    1    100.0    5 
 9/19/05  6:35a   24.0   24.0   24.0    93   22.8   8.0   WNW  0.67  12.9    NW   24.0   26.0   26.0  1011.0  0.00   1.3   0.000   0.020   27.4    88   25.2   31.9   114    1    100.0    5 
 9/19/05  6:40a   24.0   24.0   24.0    93   22.8   6.4     W  0.54  14.5   WNW   24.0   26.0   26.0  1011.0  0.00   0.0   0.000   0.020   27.4    88   25.2   31.9   114    1    100.0    5 
 9/19/05  6:45a   24.0   24.0   24.0    93   22.8   8.0    NW  0.67  17.7    SW   24.0   26.0   26.0  1010.9  0.00   0.0   0.000   0.020   27.4    88   25.2   31.9   113    1     99.1    5 
 9/19/05  6:50a   24.0   24.0   23.9    93   22.8   8.0   WNW  0.67  17.7    NW   24.0   26.0   26.0  1010.9  0.00   0.0   0.000   0.020   27.4    88   25.2   31.9   114    1    100.0    5 
 9/19/05  6:55a   24.0   24.0   23.9    93   22.8   6.4   WNW  0.54  16.1   WSW   24.0   26.0   26.0  1010.9  0.25   0.0   0.000   0.020   27.3    88   25.1   31.6   114    1    100.0    5 
 9/19/05  7:00a   24.0   24.0   24.0    93   22.8   6.4     W  0.54  16.1     W   24.0   26.0   26.0  1011.0  0.00   0.0   0.000   0.020   27.2    88   25.0   31.3   114    1    100.0    5 
 9/19/05  7:05a   24.0   24.0   24.0    93   22.8   6.4     W  0.54  19.3     W   24.0   26.0   26.0  1011.0  0.25   1.5   0.000   0.020   27.3    88   25.1   31.6   114    1    100.0    5 
 9/19/05  7:10a   24.0   24.0   24.0    93   22.8   6.4   WNW  0.54  12.9   WNW   24.0   26.0   26.0  1011.0  0.51   6.1   0.000   0.020   27.3    88   25.1   31.6   114    1    100.0    5 
 9/19/05  7:15a   24.0   24.0   24.0    93   22.8   6.4    NW  0.54  16.1    NW   24.0   26.0   26.0  1011.1  0.00   2.0   0.000   0.020   27.4    88   25.2   31.9   112    1     98.2    5 
 9/19/05  7:20a   24.0   24.0   24.0    93   22.8   4.8    NW  0.40   9.7    NW   24.0   26.0   26.0  1011.1  0.00   1.3   0.000   0.020   27.4    88   25.2   31.9   113    1     99.1    5 
 9/19/05  7:25a   24.0   24.0   24.0    93   22.8   6.4   WNW  0.54  12.9   NNW   24.0   26.0   26.0  1011.1  0.00   0.0   0.000   0.020   27.4    88   25.2   31.9   114    1    100.0    5 
 9/19/05  7:30a   24.0   24.0   24.0    93   22.8   6.4    NW  0.54  11.3   NNW   24.0   26.0   26.0  1011.4  0.00   0.0   0.000   0.020   27.4    88   25.2   31.9   114    1    100.0    5 
 9/19/05  7:35a   24.0   24.1   24.0    93   22.8   4.8   WNW  0.40   9.7   WNW   24.0   26.0   26.0  1011.4  0.00   0.0   0.000   0.020   27.4    88   25.2   31.9   114    1    100.0    5 
 9/19/05  7:40a   24.1   24.1   24.1    93   22.9   3.2   NNW  0.27  11.3   NNW   24.1   26.1   26.1  1011.4  0.25   0.0   0.000   0.020   27.5    88   25.3   32.2   114    1    100.0    5 
 9/19/05  7:45a   24.1   24.1   24.1    93   22.9   3.2    NW  0.27   9.7   NNW   24.1   26.1   26.1  1011.5  0.00   0.0   0.000   0.020   27.5    88   25.3   32.2   114    1    100.0    5 
 9/19/05  7:50a   24.1   24.1   24.1    93   22.9   3.2    NW  0.27   9.7   NNW   24.1   26.1   26.1  1011.5  0.25   1.8   0.000   0.020   27.5    88   25.3   32.2   114    1    100.0    5 
 9/19/05  7:55a   24.1   24.1   24.1    93   22.9   1.6    NW  0.13   6.4   NNW   24.1   26.1   26.1  1011.5  0.00   1.5   0.000   0.020   27.5    88   25.3   32.2   112    1     98.2    5 
 9/19/05  8:00a   24.1   24.2   24.1    93   22.9   1.6    NW  0.13   8.0   NNW   24.1   26.2   26.2  1011.4  0.00   1.0   0.000   0.020   27.5    88   25.3   32.2   114    1    100.0    5 
 9/19/05  8:05a   24.2   24.2   24.2    93   23.0   3.2    NW  0.27   8.0    NW   24.2   26.2   26.2  1011.4  0.00   0.0   0.000   0.020   27.5    88   25.3   32.2   113    1     99.1    5 
 9/19/05  8:10a   24.2   24.3   24.2    93   23.0   3.2   WNW  0.27   9.7   WNW   24.2   26.2   26.2  1011.4  0.00   0.0   0.000   0.020   27.5    88   25.3   32.2   112    1     98.2    5 
 9/19/05  8:15a   24.3   24.3   24.3    93   23.1   4.8   WNW  0.40  11.3    NW   24.3   26.3   26.3  1011.2  0.00   0.0   0.000   0.021   27.5    88   25.3   32.2   114    1    100.0    5 
 9/19/05  8:20a   24.3   24.3   24.3    93   23.1   8.0    NW  0.67  17.7    NW   24.3   26.3   26.3  1011.2  0.25   0.0   0.000   0.021   27.5    88   25.3   32.2   114    1    100.0    5 
 9/19/05  8:25a   24.3   24.3   24.3    93   23.1   6.4   WNW  0.54  19.3   WNW   24.3   26.3   26.3  1011.2  0.76  25.1   0.000   0.021   27.4    88   25.2   31.9   113    1     99.1    5 
 9/19/05  8:30a   24.2   24.3   24.2    93   23.0   6.4   WNW  0.54  16.1   WNW   24.2   26.2   26.2  1011.4  0.25  29.5   0.000   0.020   27.3    89   25.4   31.9   113    1     99.1    5 
 9/19/05  8:35a   24.2   24.2   24.2    93   23.0   9.7   WNW  0.80  20.9    NW   24.2   26.2   26.2  1011.4  1.27  31.5   0.000   0.020   27.3    89   25.3   31.8    98    1     86.0    5 
 9/19/05  8:40a   24.2   24.2   24.2    93   23.0   9.7    NW  0.80  20.9    NW   24.2   26.2   26.2  1011.4  3.30  51.6   0.000   0.020   27.3    89   25.3   31.8    64    1     56.1    5 
 9/19/05  8:45a   24.1   24.2   24.1    93   22.9   8.0    NW  0.67  17.7    NW   24.1   26.2   26.2  1011.1  0.00   2.8   0.000   0.020   27.2    89   25.2   31.5   114    1    100.0    5 
 9/19/05  8:50a   24.1   24.1   24.1    93   22.9   8.0    NW  0.67  11.3    NW   24.1   26.1   26.1  1011.1  0.00   1.5   0.000   0.020   27.2    90   25.4   31.7   114    1    100.0    5 
 9/19/05  8:55a   24.1   24.1   24.1    93   22.9   8.0    NW  0.67  16.1   WNW   24.1   26.1   26.1  1011.1  0.00   1.0   0.000   0.020   27.2    90   25.4   31.7   114    1    100.0    5 
 9/19/05  9:00a   24.2   24.2   24.1    93   23.0   6.4    NW  0.54  12.9   WNW   24.2   26.2   26.2  1011.0  0.00   0.0   0.000   0.020   27.2    90   25.4   31.7   114    1    100.0    5 
 9/19/05  9:05a   24.3   24.3   24.3    93   23.1   6.4    NW  0.54  16.1   NNW   24.3   26.3   26.3  1011.0  0.00   0.0   0.000   0.021   27.2    90   25.4   31.7   114    1    100.0    5 
 9/19/05  9:10a   24.3   24.3   24.3    93   23.1   6.4    NW  0.54  16.1   NNW   24.3   26.3   26.3  1011.0  0.00   0.0   0.000   0.021   27.2    90   25.4   31.7   114    1    100.0    5 
 9/19/05  9:15a   24.3   24.3   24.3    93   23.1   8.0    NW  0.67  16.1   NNW   24.3   26.3   26.3  1010.9  0.00   0.0   0.000   0.021   27.2    91   25.6   31.9   113    1     99.1    5 
 9/19/05  9:20a   24.3   24.3   24.2    93   23.1   6.4    NW  0.54  12.9    NW   24.3   26.3   26.3  1010.9  0.00   0.0   0.000   0.021   27.3    90   25.5   31.9   114    1    100.0    5 
 9/19/05  9:25a   24.2   24.3   24.2    93   23.0   4.8   NNW  0.40  11.3   NNE   24.2   26.3   26.3  1010.9  0.00   0.0   0.000   0.020   27.3    90   25.5   31.9   114    1    100.0    5 
 9/19/05  9:30a   24.2   24.3   24.2    93   23.0   6.4     N  0.54  12.9     N   24.2   26.2   26.2  1011.1  0.51   8.4   0.000   0.020   27.3    90   25.5   31.9   114    1    100.0    5 
 9/19/05  9:35a   24.3   24.3   24.3    93   23.1   4.8     N  0.40  11.3   NNE   24.3   26.3   26.3  1011.1  1.02  19.6   0.000   0.021   27.4    90   25.6   32.3   114    1    100.0    5 
 9/19/05  9:40a   24.4   24.4   24.3    92   23.0   9.7     N  0.80  20.9   NNW   24.4   26.4   26.4  1011.1  0.76  14.5   0.000   0.021   27.5    89   25.5   32.4   114    1    100.0    5 
 9/19/05  9:45a   24.3   24.4   24.3    92   22.9   9.7     N  0.80  22.5   NNW   24.3   26.3   26.3  1011.0  0.25   7.6   0.000   0.021   27.5    89   25.5   32.4   114    1    100.0    5 
 9/19/05  9:50a   24.2   24.3   24.1    92   22.8  11.3     N  0.94  22.5   NNW   24.2   26.2   26.2  1011.0  2.03  39.1   0.000   0.020   27.5    89   25.5   32.4   114    1    100.0    5 
 9/19/05  9:55a   24.1   24.1   24.0    92   22.7   9.7   NNW  0.80  19.3     N   24.1   26.1   26.1  1011.0  1.27  28.4   0.000   0.020   27.5    88   25.3   32.2   113    1     99.1    5 
 9/19/05 10:00a   24.1   24.1   24.1    92   22.7   8.0   NNW  0.67  14.5    NW   24.1   26.1   26.1  1011.0  0.51  24.9   0.000   0.020   27.5    89   25.5   32.4   113    1     99.1    5 
 9/19/05 10:05a   24.1   24.1   24.1    92   22.7   8.0     N  0.67  16.1     N   24.1   26.1   26.1  1011.0  0.25   4.6   0.000   0.020   27.5    89   25.5   32.4   113    1     99.1    5 
 9/19/05 10:10a   24.1   24.1   24.1    92   22.7   8.0     N  0.67  17.7     N   24.1   26.1   26.1  1011.0  0.51   7.4   0.000   0.020   27.5    89   25.5   32.4   114    1    100.0    5 
 9/19/05 10:15a   24.1   24.1   24.1    92   22.7   6.4   NNW  0.54  16.1     N   24.1   26.1   26.1  1011.1  0.25   7.4   0.000   0.020   27.4    89   25.4   32.1   114    1    100.0    5 
 9/19/05 10:20a   24.2   24.2   24.1    93   23.0   6.4    NW  0.54  12.9    NW   24.2   26.2   26.2  1011.1  0.76   8.9   0.000   0.020   27.4    89   25.4   32.1   112    1     98.2    5 
 9/19/05 10:25a   24.2   24.2   24.2    93   23.0   8.0   WNW  0.67  20.9   WSW   24.2   26.2   26.2  1011.1  1.02  12.7   0.000   0.020   27.4    89   25.4   32.1   113    1     99.1    5 
 9/19/05 10:30a   24.3   24.3   24.2    93   23.1   8.0    NW  0.67  20.9   WNW   24.3   26.3   26.3  1010.8  0.25  12.7   0.000   0.021   27.3    89   25.3   31.8   113    1     99.1    5 
 9/19/05 10:35a   24.3   24.3   24.3    93   23.1  11.3    NW  0.94  20.9    NW   24.3   26.3   26.3  1010.8  0.51   5.6   0.000   0.021   27.3    90   25.5   31.9   111    1     97.4    5 
 9/19/05 10:40a   24.3   24.3   24.3    93   23.1   9.7   NNW  0.80  17.7   NNW   24.3   26.3   26.3  1010.8  0.51   7.4   0.000   0.021   27.3    90   25.5   31.9   112    1     98.2    5 
 9/19/05 10:45a   24.2   24.3   24.2    93   23.0   8.0   NNW  0.67  11.3   NNW   24.2   26.3   26.3  1010.4  0.25   5.1   0.000   0.020   27.2    90   25.4   31.7   113    1     99.1    5 
 9/19/05 10:50a   24.2   24.2   24.2    93   23.0   6.4   NNW  0.54  11.3   NNW   24.2   26.2   26.2  1010.4  0.51   5.6   0.000   0.020   27.2    90   25.4   31.7   113    1     99.1    5 
 9/19/05 10:55a   24.2   24.2   24.2    93   23.0   6.4   NNW  0.54  12.9    NW   24.2   26.2   26.2  1010.4  0.25   5.6   0.000   0.020   27.3    90   25.5   31.9   114    1    100.0    5 
 9/19/05 11:00a   24.2   24.2   24.2    93   23.0   6.4    NW  0.54  12.9   WNW   24.2   26.2   26.2  1010.4  0.25   5.8   0.000   0.020   27.2    90   25.4   31.8   114    1    100.0    5 
 9/19/05 11:05a   24.3   24.3   24.2    93   23.1   6.4   NNW  0.54   9.7   NNW   24.3   26.3   26.3  1010.4  0.25   5.1   0.000   0.021   27.2    90   25.4   31.7   113    1     99.1    5 
 9/19/05 11:10a   24.3   24.3   24.3    93   23.1   6.4   NNW  0.54  12.9   NNW   24.3   26.3   26.3  1010.4  0.51   4.6   0.000   0.021   27.2    90   25.4   31.7   110    1     96.5    5 
 9/19/05 11:15a   24.3   24.4   24.3    93   23.1   8.0    NW  0.67  12.9   NNW   24.3   26.4   26.4  1010.2  0.51   5.8   0.000   0.021   27.2    90   25.4   31.7   111    1     97.4    5 
 9/19/05 11:20a   24.3   24.4   24.3    93   23.1  11.3   NNW  0.94  20.9     N   24.3   26.4   26.4  1010.2  0.00   2.5   0.000   0.021   27.2    90   25.4   31.7   112    1     98.2    5 
 9/19/05 11:25a   24.3   24.3   24.3    93   23.1   9.7     N  0.80  19.3     N   24.3   26.3   26.3  1010.2  0.25   2.5   0.000   0.021   27.2    90   25.4   31.7   113    1     99.1    5 
 9/19/05 11:30a   24.2   24.3   24.2    93   23.0   9.7     N  0.80  17.7     N   24.2   26.3   26.3  1010.1  0.00   1.5   0.000   0.020   27.2    90   25.4   31.7   114    1    100.0    5 
 9/19/05 11:35a   24.3   24.3   24.2    93   23.1   6.4     N  0.54  14.5   NNE   24.3   26.3   26.3  1010.1  0.25   1.5   0.000   0.021   27.2    90   25.4   31.7   114    1    100.0    5 
 9/19/05 11:40a   24.3   24.3   24.3    93   23.1   8.0     N  0.67  12.9     N   24.3   26.3   26.3  1010.1  0.00   1.5   0.000   0.021   27.2    90   25.4   31.7   112    1     98.2    5 
 9/19/05 11:45a   24.3   24.3   24.3    93   23.1   6.4     N  0.54  16.1   NNW   24.3   26.3   26.3  1010.2  0.25   2.0   0.000   0.021   27.2    90   25.4   31.7   114    1    100.0    5 
 9/19/05 11:50a   24.3   24.3   24.3    92   22.9   6.4   NNW  0.54  11.3   NNW   24.3   26.3   26.3  1010.2  0.76   8.4   0.000   0.021   27.2    90   25.4   31.7   114    1    100.0    5 
 9/19/05 11:55a   24.3   24.3   24.3    92   22.9   6.4   NNW  0.54  11.3   NNW   24.3   26.3   26.3  1010.2  0.25   6.1   0.000   0.021   27.2    90   25.4   31.8   114    1    100.0    5 
 9/19/05 12:00p   24.3   24.4   24.3    93   23.1   6.4   NNW  0.54  12.9     N   24.3   26.4   26.4  1010.0  0.25   5.1   0.000   0.021   27.2    90   25.4   31.7   113    1     99.1    5 
 9/19/05 12:05p   24.4   24.4   24.4    93   23.2   6.4   NNW  0.54  12.9     N   24.4   26.6   26.6  1010.0  0.00   1.8   0.000   0.021   27.3    91   25.7   32.1   114    1    100.0    5 
 9/19/05 12:10p   24.6   24.6   24.4    93   23.3   6.4   NNW  0.54  14.5    NW   24.6   26.7   26.7  1010.0  0.25   1.8   0.000   0.022   27.3    91   25.7   32.1   111    1     97.4    5 
 9/19/05 12:15p   24.6   24.6   24.6    93   23.3   6.4   NNW  0.54  11.3   NNW   24.6   26.7   26.7  1009.9  0.25   2.3   0.000   0.022   27.4    91   25.8   32.4   114    1    100.0    5 
 9/19/05 12:20p   24.6   24.7   24.6    93   23.3   6.4    NW  0.54  11.3    NW   24.6   26.7   26.7  1009.9  0.00   2.3   0.000   0.022   27.4    91   25.8   32.4    98    1     86.0    5 
 9/19/05 12:25p   24.7   24.7   24.7    92   23.3   6.4    NW  0.54  11.3   NNW   24.7   26.8   26.8  1009.9  0.00   1.3   0.000   0.022   27.4    91   25.8   32.4   107    1     93.9    5 
 9/19/05 12:30p   24.7   24.7   24.7    92   23.3   8.0   NNW  0.67  16.1    NW   24.7   26.8   26.8  1009.7  0.25   1.3   0.000   0.022   27.4    91   25.8   32.4   114    1    100.0    5 
 9/19/05 12:35p   24.7   24.7   24.7    92   23.3   8.0   NNW  0.67  17.7   NNW   24.7   26.8   26.8  1009.7  0.25   3.0   0.000   0.022   27.4    91   25.8   32.4   114    1    100.0    5 
 9/19/05 12:40p   24.7   24.8   24.7    92   23.3   6.4   NNW  0.54  16.1   NNW   24.7   26.9   26.9  1009.7  0.00   2.8   0.000   0.022   27.4    91   25.8   32.4   114    1    100.0    5 
 9/19/05 12:45p   24.8   24.8   24.8    92   23.4   8.0     N  0.67  12.9   NNW   24.8   27.0   27.0  1009.4  0.00   1.5   0.000   0.022   27.3    91   25.7   32.1   113    1     99.1    5 
 9/19/05 12:50p   24.9   24.9   24.8    92   23.5   8.0   NNW  0.67  16.1   NNW   24.9   27.2   27.2  1009.4  0.25   1.5   0.000   0.023   27.3    91   25.7   32.1   114    1    100.0    5 
 9/19/05 12:55p   24.9   24.9   24.9    92   23.6   8.0   NNW  0.67  17.7   NNW   24.9   27.3   27.3  1009.4  0.00   1.3   0.000   0.023   27.4    92   26.0   32.6   114    1    100.0    5 
 9/19/05  1:00p   24.9   25.1   24.9    92   23.6   6.4     N  0.54  14.5    NW   24.9   27.3   27.3  1009.1  0.00   1.0   0.000   0.023   27.4    92   26.0   32.6   114    1    100.0    5 
 9/19/05  1:05p   24.9   24.9   24.9    92   23.6   8.0     N  0.67  17.7     N   24.9   27.3   27.3  1009.1  0.00   0.0   0.000   0.023   27.4    92   26.0   32.6   114    1    100.0    5 
 9/19/05  1:10p   24.8   24.9   24.8    92   23.4   6.4     N  0.54  16.1   NNW   24.8   27.1   27.1  1009.1  0.00   0.0   0.000   0.023   27.4    92   26.0   32.6   114    1    100.0    5 
 9/19/05  1:15p   24.8   24.8   24.8    92   23.4   8.0     N  0.67  14.5     N   24.8   27.1   27.1  1008.9  0.25   0.0   0.000   0.023   27.4    92   26.0   32.6   113    1     99.1    5 
 9/19/05  1:20p   24.9   24.9   24.8    92   23.6   8.0    NW  0.67  19.3   NNW   24.9   27.3   27.3  1008.9  0.00   0.0   0.000   0.023   27.4    92   26.0   32.6   114    1    100.0    5 
 9/19/05  1:25p   25.1   25.1   24.9    92   23.7   8.0    NW  0.67  19.3    NW   25.1   27.4   27.4  1008.9  0.00   0.0   0.000   0.023   27.4    92   26.0   32.6   114    1    100.0    5 
 9/19/05  1:30p   25.1   25.2   25.1    92   23.7   8.0    NW  0.67  16.1   WNW   25.1   27.6   27.6  1008.5  0.00   0.0   0.000   0.024   27.4    92   26.0   32.6   114    1    100.0    5 
 9/19/05  1:35p   25.2   25.2   25.2    92   23.8   8.0    NW  0.67  16.1     N   25.2   27.7   27.7  1008.5  0.00   0.0   0.000   0.024   27.4    93   26.2   32.8   112    1     98.2    5 
 9/19/05  1:40p   25.2   25.2   25.2    92   23.8   8.0   NNW  0.67  12.9   NNW   25.2   27.7   27.7  1008.5  0.00   0.0   0.000   0.024   27.4    92   26.0   32.6   114    1    100.0    5 
 9/19/05  1:45p   25.2   25.2   25.2    92   23.8   8.0    NW  0.67  16.1   NNW   25.2   27.7   27.7  1008.4  0.00   0.0   0.000   0.024   27.5    92   26.1   32.9   113    1     99.1    5 
 9/19/05  1:50p   25.2   25.2   25.2    92   23.8   4.8   NNW  0.40  12.9     N   25.2   27.7   27.7  1008.4  0.00   0.0   0.000   0.024   27.5    92   26.1   32.9   114    1    100.0    5 
 9/19/05  1:55p   25.2   25.3   25.2    92   23.8   4.8   NNW  0.40  11.3   NNW   25.2   27.7   27.7  1008.4  0.00   0.0   0.000   0.024   27.6    92   26.1   33.1   114    1    100.0    5 
 9/19/05  2:00p   25.2   25.3   25.2    91   23.6   8.0   NNW  0.67  17.7   NNW   25.2   27.7   27.7  1008.4  0.00   0.0   0.000   0.024   27.6    92   26.2   33.3   113    1     99.1    5 
 9/19/05  2:05p   25.1   25.2   25.1    91   23.5   8.0    NW  0.67  16.1   NNW   25.1   27.4   27.4  1008.4  0.00   0.0   0.000   0.023   27.6    92   26.2   33.3   114    1    100.0    5 
 9/19/05  2:10p   25.0   25.1   24.9    91   23.4  11.3    NW  0.94  19.3   NNW   25.0   27.3   27.3  1008.4  0.00   0.0   0.000   0.023   27.6    91   26.0   33.1   114    1    100.0    5 
 9/19/05  2:15p   24.9   24.9   24.8    91   23.3   8.0    NW  0.67  17.7   NNW   24.9   27.1   27.1  1008.1  0.00   0.0   0.000   0.023   27.6    91   26.0   33.1   114    1    100.0    5 
 9/19/05  2:20p   24.8   24.8   24.8    91   23.3   8.0   NNW  0.67  17.7   NNW   24.8   27.0   27.0  1008.1  0.00   0.0   0.000   0.023   27.6    90   25.8   32.9   114    1    100.0    5 
 9/19/05  2:25p   24.8   24.8   24.8    90   23.1   8.0   WNW  0.67  16.1     N   24.8   26.9   26.9  1008.1  0.00   0.0   0.000   0.023   27.6    90   25.8   32.7   114    1    100.0    5 
 9/19/05  2:30p   24.8   24.8   24.8    90   23.0   6.4   WNW  0.54  17.7     W   24.8   26.9   26.9  1008.0  0.00   0.0   0.000   0.022   27.5    90   25.7   32.6   114    1    100.0    5 
 9/19/05  2:35p   24.7   24.8   24.7    90   22.9   4.8    NW  0.40  11.3   WNW   24.7   26.7   26.7  1008.0  0.00   0.0   0.000   0.022   27.4    90   25.6   32.3   114    1    100.0    5 
 9/19/05  2:40p   24.6   24.7   24.6    90   22.9   8.0   WNW  0.67  17.7    NW   24.6   26.7   26.7  1008.0  0.00   0.0   0.000   0.022   27.4    90   25.6   32.3   114    1    100.0    5 
 9/19/05  2:45p   24.6   24.7   24.6    90   22.9   6.4   WNW  0.54  12.9   WNW   24.6   26.7   26.7  1007.8  0.00   0.0   0.000   0.022   27.4    90   25.6   32.3   114    1    100.0    5 
 9/19/05  2:50p   24.6   24.6   24.6    90   22.8   8.0   WNW  0.67  16.1   WNW   24.6   26.6   26.6  1007.8  0.00   0.0   0.000   0.022   27.3    90   25.5   32.1   114    1    100.0    5 
 9/19/05  2:55p   24.6   24.6   24.4    90   22.8  12.9    NW  1.07  22.5    NW   24.3   26.6   26.3  1007.8  2.79  69.1   0.000   0.022   27.3    89   25.3   31.8   112    1     98.2    5 
 9/19/05  3:00p   24.3   24.4   24.1    91   22.7  17.7    NW  1.48  29.0   NNW   23.0   26.3   25.0  1008.4  1.27  52.6   0.000   0.021   27.2    89   25.2   31.6   114    1    100.0    5 
 9/19/05  3:05p   23.9   24.1   23.9    91   22.4  16.1     N  1.34  32.2   NNW   22.8   25.9   24.8  1008.4  0.25  11.7   0.000   0.019   27.1    89   25.1   31.2   114    1    100.0    5 
 9/19/05  3:10p   23.8   23.9   23.8    91   22.3  11.3     N  0.94  20.9     N   23.8   25.7   25.7  1008.4  1.52  29.5   0.000   0.019   27.0    89   25.0   31.1   114    1    100.0    5 
 9/19/05  3:15p   23.7   23.7   23.6    91   22.1   6.4     N  0.54  12.9     N   23.7   25.4   25.4  1008.3  1.52  18.8   0.000   0.019   26.9    89   25.0   30.9   112    1     98.2    5 
 9/19/05  3:20p   23.6   23.6   23.6    92   22.2   4.8     N  0.40  11.3    NW   23.6   25.3   25.3  1008.3  1.02  17.0   0.000   0.018   26.9    89   25.0   30.9   113    1     99.1    5 
 9/19/05  3:25p   23.6   23.6   23.6    92   22.2   4.8     N  0.40  11.3     N   23.6   25.3   25.3  1008.3  0.00   2.8   0.000   0.018   27.1    89   25.1   31.2   114    1    100.0    5 
 9/19/05  3:30p   23.6   23.6   23.6    92   22.2   3.2   NNW  0.27   8.0   NNW   23.6   25.3   25.3  1008.0  0.25   2.8   0.000   0.018   27.1    89   25.1   31.2   114    1    100.0    5 
 9/19/05  3:35p   23.7   23.7   23.6    92   22.3   3.2    NW  0.27  12.9   NNW   23.7   25.4   25.4  1008.0  0.00   1.5   0.000   0.019   27.1    89   25.1   31.2   113    1     99.1    5 
 9/19/05  3:40p   23.9   24.0   23.8    92   22.5   9.7     N  0.80  17.7   NNW   23.9   25.8   25.8  1008.0  0.25   1.5   0.000   0.019   27.1    89   25.1   31.2   114    1    100.0    5 
 9/19/05  3:45p   24.1   24.1   24.0    92   22.7   8.0    NW  0.67  12.9     N   24.1   26.1   26.1  1007.9  0.25   3.0   0.000   0.020   26.9    89   25.0   30.9   114    1    100.0    5 
 9/19/05  3:50p   24.1   24.1   24.0    92   22.7   9.7    NW  0.80  19.3    NW   24.1   26.1   26.1  1007.9  0.51   8.1   0.000   0.020   26.9    90   25.1   31.0   114    1    100.0    5 
 9/19/05  3:55p   23.9   24.0   23.9    92   22.6   8.0    NW  0.67  19.3   NNW   23.9   25.9   25.9  1007.9  0.51   8.1   0.000   0.019   26.9    90   25.1   31.0   114    1    100.0    5 
 9/19/05  4:00p   23.9   23.9   23.8    92   22.5   6.4    NW  0.54  12.9     N   23.9   25.8   25.8  1007.9  0.51   7.1   0.000   0.019   26.8    90   25.0   30.7   114    1    100.0    5 
 9/19/05  4:05p   23.8   23.8   23.8    92   22.4   6.4    NW  0.54  12.9   NNW   23.8   25.6   25.6  1007.9  0.25   7.1   0.000   0.019   26.8    90   25.0   30.7   114    1    100.0    5 
 9/19/05  4:10p   23.8   23.8   23.8    92   22.4   6.4    NW  0.54  12.9   NNW   23.8   25.6   25.6  1007.9  0.51   5.6   0.000   0.019   26.7    90   24.9   30.6   113    1     99.1    5 
 9/19/05  4:15p   23.8   23.8   23.8    92   22.4   4.8    NW  0.40  12.9   WNW   23.8   25.6   25.6  1007.8  0.25   4.1   0.000   0.019   26.7    90   24.9   30.4   114    1    100.0    5 
 9/19/05  4:20p   23.8   23.8   23.8    93   22.6   6.4    NW  0.54  16.1    NW   23.8   25.7   25.7  1007.8  0.25   3.3   0.000   0.019   26.7    90   24.9   30.4   114    1    100.0    5 
 9/19/05  4:25p   23.8   23.8   23.8    93   22.6   8.0    NW  0.67  16.1   NNW   23.8   25.7   25.7  1007.8  0.25   3.3   0.000   0.019   26.7    90   24.9   30.4   114    1    100.0    5 
 9/19/05  4:30p   23.8   23.9   23.8    93   22.6   6.4   NNW  0.54  12.9   NNW   23.8   25.8   25.8  1007.6  1.02  45.2   0.000   0.019   26.7    91   25.1   30.6   114    1    100.0    5 
 9/19/05  4:35p   23.9   23.9   23.9    93   22.7   8.0   NNW  0.67  16.1   NNW   23.9   25.9   25.9  1007.6  0.51  15.0   0.000   0.019   26.6    91   25.0   30.3   114    1    100.0    5 
 9/19/05  4:40p   23.9   24.0   23.9    93   22.7   6.4   NNW  0.54  14.5     N   23.9   25.9   25.9  1007.6  0.51   6.3   0.000   0.019   26.6    91   25.0   30.3   114    1    100.0    5 
 9/19/05  4:45p   24.0   24.0   24.0    93   22.8   8.0   NNW  0.67  11.3     N   24.0   26.0   26.0  1007.6  0.76   9.9   0.000   0.020   26.6    92   25.1   30.5   114    1    100.0    5 
 9/19/05  4:50p   24.0   24.0   24.0    93   22.8   8.0   NNW  0.67  16.1     N   24.0   26.0   26.0  1007.6  0.51   8.9   0.000   0.020   26.6    92   25.1   30.5   114    1    100.0    5 
 9/19/05  4:55p   24.0   24.0   24.0    93   22.8   4.8   NNW  0.40  11.3    NW   24.0   26.0   26.0  1007.6  0.76   8.6   0.000   0.020   26.6    92   25.2   30.6   114    1    100.0    5 
 9/19/05  5:00p   24.0   24.0   24.0    93   22.8   6.4     N  0.54  12.9   NNW   24.0   26.0   26.0  1007.6  0.25   7.1   0.000   0.020   26.7    92   25.3   30.7   111    1     97.4    5 
 9/19/05  5:05p   24.1   24.1   24.0    93   22.9   4.8   NNW  0.40  12.9    NW   24.1   26.1   26.1  1007.6  0.25   3.6   0.000   0.020   26.7    92   25.3   30.7   113    1     99.1    5 
 9/19/05  5:10p   24.2   24.2   24.1    93   23.0   6.4   NNW  0.54  16.1     N   24.2   26.2   26.2  1007.6  0.00   2.5   0.000   0.020   26.7    92   25.3   30.7   111    1     97.4    5 
 9/19/05  5:15p   24.3   24.3   24.2    93   23.1   6.4   NNW  0.54  11.3     N   24.3   26.3   26.3  1007.6  0.00   1.3   0.000   0.021   26.7    92   25.3   30.7   114    1    100.0    5 
 9/19/05  5:20p   24.3   24.4   24.3    93   23.1   6.4   NNW  0.54  11.3   NNW   24.3   26.4   26.4  1007.6  0.00   1.0   0.000   0.021   26.7    92   25.3   30.7   114    1    100.0    5 
 9/19/05  5:25p   24.3   24.4   24.3    93   23.1   6.4     N  0.54  12.9     N   24.3   26.4   26.4  1007.6  0.00   0.0   0.000   0.021   26.8    92   25.4   31.0   114    1    100.0    5 
 9/19/05  5:30p   24.2   24.3   24.2    93   23.0   6.4     N  0.54  12.9   NNW   24.2   26.3   26.3  1007.6  0.00   0.0   0.000   0.020   26.8    92   25.4   31.0   113    1     99.1    5 
 9/19/05  5:35p   24.1   24.2   24.1    93   22.9   3.2     N  0.27   9.7     N   24.1   26.1   26.1  1007.6  0.00   0.0   0.000   0.020   26.8    92   25.4   31.0   114    1    100.0    5 
 9/19/05  5:40p   24.1   24.1   24.1    93   22.9   3.2     N  0.27   8.0   NNW   24.1   26.1   26.1  1007.6  0.00   0.0   0.000   0.020   26.8    92   25.4   31.0   114    1    100.0    5 
 9/19/05  5:45p   24.1   24.1   24.1    93   22.9   3.2   NNW  0.27   8.0   NNW   24.1   26.1   26.1  1007.8  0.00   0.0   0.000   0.020   26.8    92   25.4   31.0   114    1    100.0    5 
 9/19/05  5:50p   24.1   24.2   24.1    92   22.7   3.2     N  0.27   9.7   NNW   24.1   26.1   26.1  1007.8  0.00   0.0   0.000   0.020   26.8    92   25.4   31.0   114    1    100.0    5 
 9/19/05  5:55p   24.2   24.2   24.2    92   22.8   1.6     N  0.13   6.4     N   24.2   26.2   26.2  1007.8  0.00   0.0   0.000   0.020   26.8    92   25.4   31.2   114    1    100.0    5 
 9/19/05  6:00p   24.3   24.3   24.3    92   22.9   1.6     N  0.13   4.8   NNW   24.3   26.3   26.3  1007.7  0.00   0.0   0.000   0.021   26.8    92   25.4   31.2   113    1     99.1    5 
 9/19/05  6:05p   24.3   24.4   24.3    92   22.9   1.6     N  0.13   4.8     N   24.3   26.3   26.3  1007.7  0.25   0.0   0.000   0.021   26.9    92   25.5   31.3   114    1    100.0    5 
 9/19/05  6:10p   24.4   24.4   24.4    92   23.0   1.6     N  0.13   3.2     N   24.4   26.4   26.4  1007.7  0.00   0.0   0.000   0.021   26.9    92   25.5   31.3   114    1    100.0    5 
 9/19/05  6:15p   24.4   24.4   24.4    92   23.0   4.8     N  0.40  22.5     N   24.4   26.4   26.4  1007.9  0.25   1.3   0.000   0.021   26.9    92   25.5   31.4   114    1    100.0    5 
 9/19/05  6:20p   24.4   24.4   24.4    92   23.1   8.0     N  0.67  19.3    NW   24.4   26.5   26.5  1007.9  0.00   1.3   0.000   0.021   26.9    92   25.5   31.4   114    1    100.0    5 
 9/19/05  6:25p   24.6   24.7   24.4    92   23.2   9.7   NNW  0.80  17.7     N   24.6   26.7   26.7  1007.9  0.00   1.3   0.000   0.022   26.9    91   25.3   31.3   114    1    100.0    5 
 9/19/05  6:30p   24.8   24.8   24.7    91   23.2   9.7   NNW  0.80  17.7   NNW   24.8   26.9   26.9  1007.9  0.00   1.0   0.000   0.022   26.9    92   25.5   31.3   114    1    100.0    5 
 9/19/05  6:35p   24.9   24.9   24.8    91   23.3   8.0   NNW  0.67  17.7   NNW   24.9   27.1   27.1  1007.9  0.25   1.0   0.000   0.023   26.9    92   25.5   31.3   113    1     99.1    5 
 9/19/05  6:40p   25.0   25.1   24.9    91   23.4   8.0   NNW  0.67  14.5   NNW   25.0   27.3   27.3  1007.9  0.00   0.0   0.000   0.023   26.9    92   25.5   31.3   114    1    100.0    5 
 9/19/05  6:45p   25.1   25.1   25.1    91   23.5   6.4   NNW  0.54  14.5   NNW   25.1   27.4   27.4  1007.9  0.00   0.0   0.000   0.023   26.9    93   25.7   31.4   114    1    100.0    5 
 9/19/05  6:50p   25.1   25.1   24.9    91   23.5   6.4    NW  0.54  11.3   WNW   25.1   27.4   27.4  1007.9  0.51   8.9   0.000   0.023   26.9    93   25.7   31.4   113    1     99.1    5 
 9/19/05  6:55p   24.8   24.9   24.8    91   23.3   4.8   WNW  0.40  12.9   WNW   24.8   27.0   27.0  1007.9  0.00   2.3   0.000   0.023   26.9    93   25.7   31.6   114    1    100.0    5 
 9/19/05  7:00p   24.6   24.7   24.4    91   23.0   3.2    NW  0.27  11.3   WNW   24.6   26.6   26.6  1007.9  0.00   1.3   0.000   0.022   26.9    93   25.7   31.4   107    1     93.9    5 
 9/19/05  7:05p   24.3   24.4   24.3    91   22.8   4.8    NW  0.40  11.3   NNW   24.3   26.3   26.3  1007.9  0.00   1.0   0.000   0.021   26.9    92   25.5   31.3    83    1     72.8    5 
 9/19/05  7:10p   24.3   24.3   24.3    91   22.7   3.2    NW  0.27  11.3    NW   24.3   26.3   26.3  1007.9  0.00   0.0   0.000   0.021   26.9    92   25.5   31.4   114    1    100.0    5 
 9/19/05  7:15p   24.3   24.3   24.3    92   22.9   3.2   WNW  0.27  11.3     W   24.3   26.3   26.3  1007.9  0.00   0.0   0.000   0.021   26.9    92   25.5   31.4   114    1    100.0    5 
 9/19/05  7:20p   24.3   24.3   24.3    92   22.9   3.2   WNW  0.27   9.7   WNW   24.3   26.3   26.3  1007.9  0.00   0.0   0.000   0.021   26.9    91   25.3   31.3   114    1    100.0    5 
 9/19/05  7:25p   24.3   24.3   24.3    92   22.9   1.6    NW  0.13   8.0   NNW   24.3   26.3   26.3  1007.9  0.00   0.0   0.000   0.021   26.9    91   25.3   31.3   114    1    100.0    5 
 9/19/05  7:30p   24.3   24.3   24.2    92   22.9   4.8    NW  0.40  11.3   WNW   24.3   26.3   26.3  1007.9  0.00   0.0   0.000   0.021   26.9    91   25.3   31.3   114    1    100.0    5 
 9/19/05  7:35p   24.2   24.2   24.2    92   22.8   3.2    NW  0.27   8.0   WNW   24.2   26.2   26.2  1007.9  0.00   0.0   0.000   0.020   26.9    91   25.3   31.1   114    1    100.0    5 
 9/19/05  7:40p   24.2   24.3   24.2    92   22.8   3.2   WNW  0.27  11.3   NNW   24.2   26.2   26.2  1007.9  0.00   0.0   0.000   0.020   26.9    91   25.3   31.3   113    1     99.1    5 
 9/19/05  7:45p   24.2   24.3   24.2    92   22.8   3.2   WNW  0.27   9.7     W   24.2   26.2   26.2  1008.0  0.00   0.0   0.000   0.020   26.9    91   25.3   31.1   114    1    100.0    5 
 9/19/05  7:50p   24.2   24.2   24.2    92   22.8   4.8   WNW  0.40  11.3     W   24.2   26.2   26.2  1008.0  0.00   0.0   0.000   0.020   26.9    91   25.3   31.1   114    1    100.0    5 
 9/19/05  7:55p   24.1   24.2   24.1    92   22.7   3.2    NW  0.27   9.7   WNW   24.1   26.1   26.1  1008.0  0.00   0.0   0.000   0.020   26.9    91   25.3   31.1   112    1     98.2    5 
 9/19/05  8:00p   24.1   24.1   24.1    92   22.7   3.2   WNW  0.27   9.7     W   24.1   26.1   26.1  1007.9  0.00   0.0   0.000   0.020   26.8    91   25.2   31.0   114    1    100.0    5 
 9/19/05  8:05p   24.1   24.2   24.1    92   22.7   3.2   WNW  0.27   9.7   WNW   24.1   26.1   26.1  1007.9  0.00   0.0   0.000   0.020   26.8    91   25.2   30.8   114    1    100.0    5 
 9/19/05  8:10p   24.2   24.2   24.2    92   22.8   3.2   WNW  0.27   8.0    NW   24.2   26.2   26.2  1007.9  0.00   0.0   0.000   0.020   26.8    91   25.2   31.0   114    1    100.0    5 
 9/19/05  8:15p   24.2   24.2   24.2    92   22.8   4.8   WNW  0.40  12.9   WNW   24.2   26.2   26.2  1008.0  0.00   0.0   0.000   0.020   26.8    91   25.2   30.8   114    1    100.0    5 
 9/19/05  8:20p   24.2   24.2   24.2    92   22.8   4.8    NW  0.40  11.3    NW   24.2   26.2   26.2  1008.0  0.00   0.0   0.000   0.020   26.8    91   25.2   30.8   114    1    100.0    5 
 9/19/05  8:25p   24.2   24.2   24.2    92   22.8   4.8   WNW  0.40  17.7   WSW   24.2   26.2   26.2  1008.0  0.00   0.0   0.000   0.020   26.8    91   25.2   30.8   113    1     99.1    5 
 9/19/05  8:30p   24.2   24.2   24.2    91   22.6   3.2    NW  0.27   9.7   NNW   24.2   26.1   26.1  1008.0  0.00   0.0   0.000   0.020   26.8    91   25.2   30.8   114    1    100.0    5 
 9/19/05  8:35p   24.2   24.2   24.2    91   22.6   4.8    NW  0.40  11.3    NW   24.2   26.1   26.1  1008.0  0.00   0.0   0.000   0.020   26.9    91   25.3   31.1   113    1     99.1    5 
 9/19/05  8:40p   24.2   24.2   24.2    91   22.6   4.8    NW  0.40  11.3   WNW   24.2   26.1   26.1  1008.0  0.00   0.0   0.000   0.020   26.9    91   25.3   31.3   114    1    100.0    5 
 9/19/05  8:45p   24.2   24.2   24.2    91   22.6   3.2    NW  0.27  17.7    NW   24.2   26.1   26.1  1008.0  0.00   0.0   0.000   0.020   26.9    90   25.2   31.1   114    1    100.0    5 
 9/19/05  8:50p   24.2   24.2   24.2    91   22.6   4.8    NW  0.40  12.9    NW   24.2   26.1   26.1  1008.0  0.00   0.0   0.000   0.020   26.9    90   25.2   31.1   114    1    100.0    5 
 9/19/05  8:55p   24.2   24.2   24.2    91   22.6   6.4   WNW  0.54  12.9    NW   24.2   26.1   26.1  1008.0  0.00   0.0   0.000   0.020   26.9    90   25.2   31.1   114    1    100.0    5 
 9/19/05  9:00p   24.2   24.2   24.2    90   22.4   4.8   WNW  0.40  11.3   WNW   24.2   26.1   26.1  1007.9  0.00   0.0   0.000   0.020   26.9    90   25.1   31.0   114    1    100.0    5 
 9/19/05  9:05p   24.2   24.2   24.2    90   22.4   6.4    NW  0.54  12.9    NW   24.2   26.1   26.1  1007.9  0.00   0.0   0.000   0.020   26.9    90   25.2   31.1   114    1    100.0    5 
 9/19/05  9:10p   24.1   24.2   24.1    90   22.4   4.8    NW  0.40  11.3   WNW   24.1   26.0   26.0  1007.9  0.00   0.0   0.000   0.020   26.9    90   25.2   31.1   114    1    100.0    5 
 9/19/05  9:15p   24.1   24.1   24.1    90   22.3   4.8    NW  0.40   9.7    NW   24.1   25.9   25.9  1008.0  0.00   0.0   0.000   0.020   26.9    89   25.0   30.9   114    1    100.0    5 
 9/19/05  9:20p   24.1   24.2   24.1    90   22.4   6.4    NW  0.54  12.9   WSW   24.1   26.0   26.0  1008.0  0.00   0.0   0.000   0.020   26.9    89   24.9   30.8   114    1    100.0    5 
 9/19/05  9:25p   24.2   24.2   24.2    90   22.4   4.8    NW  0.40  12.9    NW   24.2   26.1   26.1  1008.0  0.00   0.0   0.000   0.020   26.9    89   24.9   30.8   114    1    100.0    5 
 9/19/05  9:30p   24.2   24.2   24.2    90   22.4   4.8    NW  0.40  12.9   NNW   24.2   26.1   26.1  1008.0  0.00   0.0   0.000   0.020   26.8    89   24.8   30.6   114    1    100.0    5 
 9/19/05  9:35p   24.2   24.2   24.2    89   22.2   4.8    NW  0.40  16.1    NW   24.2   26.1   26.1  1008.0  0.00   0.0   0.000   0.020   26.8    89   24.8   30.6   114    1    100.0    5 
 9/19/05  9:40p   24.2   24.2   24.2    89   22.2   6.4   WNW  0.54  12.9    NW   24.2   26.1   26.1  1008.0  0.00   0.0   0.000   0.020   26.8    89   24.8   30.6   113    1     99.1    5 
 9/19/05  9:45p   24.2   24.2   24.2    89   22.2   6.4   WNW  0.54  11.3    NW   24.2   26.1   26.1  1007.9  0.00   0.0   0.000   0.020   26.8    89   24.8   30.6   114    1    100.0    5 
 9/19/05  9:50p   24.2   24.2   24.2    89   22.2   4.8    NW  0.40  11.3   WNW   24.2   26.1   26.1  1007.9  0.00   0.0   0.000   0.020   26.7    89   24.7   30.3   112    1     98.2    5 
 9/19/05  9:55p   24.3   24.3   24.2    89   22.3   4.8    NW  0.40  11.3   WNW   24.3   26.2   26.2  1007.9  0.00   0.0   0.000   0.021   26.7    89   24.7   30.3   114    1    100.0    5 
 9/19/05 10:00p   24.3   24.3   24.3    89   22.3   6.4    NW  0.54  16.1   WNW   24.3   26.2   26.2  1007.8  0.00   0.0   0.000   0.021   26.7    89   24.7   30.3   114    1    100.0    5 
 9/19/05 10:05p   24.3   24.3   24.3    89   22.3   6.4    NW  0.54  16.1   WNW   24.3   26.2   26.2  1007.8  0.00   0.0   0.000   0.021   26.7    89   24.7   30.3   113    1     99.1    5 
 9/19/05 10:10p   24.3   24.3   24.3    88   22.2   4.8    NW  0.40  17.7    NW   24.3   26.1   26.1  1007.8  0.00   0.0   0.000   0.021   26.7    89   24.8   30.4   114    1    100.0    5 
 9/19/05 10:15p   24.3   24.3   24.3    88   22.2   4.8   WNW  0.40  16.1     W   24.3   26.1   26.1  1007.5  0.00   0.0   0.000   0.021   26.7    89   24.8   30.4   114    1    100.0    5 
 9/19/05 10:20p   24.3   24.3   24.3    88   22.2   4.8     W  0.40  12.9   WNW   24.3   26.1   26.1  1007.5  0.00   0.0   0.000   0.021   26.7    89   24.7   30.3   114    1    100.0    5 
 9/19/05 10:25p   24.3   24.3   24.3    88   22.2   4.8     W  0.40  12.9    NW   24.3   26.1   26.1  1007.5  0.00   0.0   0.000   0.021   26.7    89   24.7   30.3   113    1     99.1    5 
 9/19/05 10:30p   24.3   24.3   24.3    88   22.2   3.2     W  0.27  14.5     W   24.3   26.1   26.1  1007.3  0.00   0.0   0.000   0.021   26.7    89   24.7   30.3   114    1    100.0    5 
 9/19/05 10:35p   24.3   24.3   24.3    88   22.2   4.8   WNW  0.40  11.3    NW   24.3   26.1   26.1  1007.3  0.00   0.0   0.000   0.021   26.7    89   24.7   30.3   114    1    100.0    5 
 9/19/05 10:40p   24.3   24.3   24.3    88   22.2   3.2    NW  0.27   9.7   WNW   24.3   26.1   26.1  1007.3  0.00   0.0   0.000   0.021   26.7    89   24.7   30.3   114    1    100.0    5 
 9/19/05 10:45p   24.3   24.3   24.3    88   22.2   3.2     W  0.27   9.7     W   24.3   26.1   26.1  1007.3  0.00   0.0   0.000   0.021   26.7    89   24.7   30.3   114    1    100.0    5 
 9/19/05 10:50p   24.3   24.3   24.3    87   22.0   3.2     W  0.27   9.7     W   24.3   26.1   26.1  1007.3  0.00   0.0   0.000   0.021   26.6    89   24.6   30.2   113    1     99.1    5 
 9/19/05 10:55p   24.3   24.3   24.3    87   22.0   4.8     W  0.40  11.3     W   24.3   26.1   26.1  1007.3  0.00   0.0   0.000   0.021   26.6    89   24.6   30.1   113    1     99.1    5 
 9/19/05 11:00p   24.3   24.3   24.3    87   22.0   3.2     W  0.27  11.3     W   24.3   26.1   26.1  1007.1  0.00   0.0   0.000   0.021   26.6    89   24.6   30.1   114    1    100.0    5 
 9/19/05 11:05p   24.3   24.3   24.3    87   22.0   4.8     W  0.40  11.3   WSW   24.3   26.1   26.1  1007.1  0.00   0.0   0.000   0.021   26.6    89   24.6   30.1   114    1    100.0    5 
 9/19/05 11:10p   24.2   24.3   24.2    87   21.9   4.8     W  0.40  12.9   WSW   24.2   25.9   25.9  1007.1  0.00   0.0   0.000   0.020   26.7    89   24.7   30.3   114    1    100.0    5 
 9/19/05 11:15p   24.2   24.2   24.2    87   21.9   4.8     W  0.40   9.7   WSW   24.2   25.9   25.9  1006.8  0.00   0.0   0.000   0.020   26.6    89   24.6   30.1   114    1    100.0    5 
 9/19/05 11:20p   24.2   24.2   24.2    88   22.1   4.8     W  0.40  11.3   WSW   24.2   26.0   26.0  1006.8  0.00   0.0   0.000   0.020   26.6    89   24.6   30.1   113    1     99.1    5 
 9/19/05 11:25p   24.2   24.2   24.2    88   22.1   3.2     W  0.27  11.3     W   24.2   26.0   26.0  1006.8  0.25   0.0   0.000   0.020   26.7    89   24.7   30.3   114    1    100.0    5 
 9/19/05 11:30p   24.2   24.2   24.2    88   22.1   3.2     W  0.27   9.7   WSW   24.2   26.0   26.0  1006.5  0.00   0.0   0.000   0.020   26.7    89   24.7   30.3   114    1    100.0    5 
 9/19/05 11:35p   24.2   24.2   24.2    89   22.2   3.2     W  0.27   9.7     W   24.2   26.1   26.1  1006.5  0.00   0.0   0.000   0.020   26.7    89   24.8   30.4   113    1     99.1    5 
 9/19/05 11:40p   24.1   24.2   24.1    89   22.1   3.2     W  0.27  11.3   WSW   24.1   25.9   25.9  1006.5  0.25   0.0   0.000   0.020   26.8    89   24.8   30.6   114    1    100.0    5 
 9/19/05 11:45p   24.1   24.1   24.1    89   22.1   1.6     W  0.13   4.8     W   24.1   25.9   25.9  1006.6  0.25   3.8   0.000   0.020   26.8    88   24.6   30.4   114    1    100.0    5 
 9/19/05 11:50p   24.1   24.1   24.1    89   22.1   1.6     W  0.13   8.0     W   24.1   25.9   25.9  1006.6  0.51   6.1   0.000   0.020   26.8    89   24.8   30.6   113    1     99.1    5 
 9/19/05 11:55p   24.0   24.1   24.0    90   22.3   1.6   WSW  0.13   4.8   WSW   24.0   25.9   25.9  1006.6  0.25   6.1   0.000   0.020   26.8    89   24.8   30.6   114    1    100.0    5 
 9/20/05 12:00a   24.0   24.0   24.0    90   22.3   1.6   WSW  0.13   8.0     W   24.0   25.9   25.9  1006.3  0.51   4.8   0.000   0.020   26.8    89   24.9   30.7   114    1    100.0    5 
 9/20/05 12:05a   23.9   24.0   23.9    90   22.2   4.8     W  0.40   9.7     W   23.9   25.8   25.8  1006.3  0.25   5.1   0.000   0.019   26.9    90   25.1   31.0   110    1     96.5    5 
 9/20/05 12:10a   23.9   23.9   23.9    90   22.1   3.2     W  0.27   9.7     W   23.9   25.8   25.8  1006.3  0.76  13.0   0.000   0.019   26.9    89   24.9   30.8   114    1    100.0    5 
 9/20/05 12:15a   23.9   23.9   23.9    91   22.3   3.2     W  0.27   8.0   WNW   23.9   25.8   25.8  1006.4  0.51  12.4   0.000   0.019   26.9    89   24.9   30.8   114    1    100.0    5 
 9/20/05 12:20a   23.8   23.9   23.8    91   22.3   1.6   WNW  0.13   4.8    NW   23.8   25.7   25.7  1006.4  0.76  10.9   0.000   0.019   26.9    89   24.9   30.8    71    1     62.3    5 
 9/20/05 12:25a   23.8   23.8   23.8    91   22.2   3.2     W  0.27   8.0     W   23.8   25.6   25.6  1006.4  0.76  10.9   0.000   0.019   26.9    89   25.0   30.9    37    1     32.5    5 
 9/20/05 12:30a   23.8   23.8   23.8    91   22.2   1.6   WSW  0.13   8.0   WSW   23.8   25.6   25.6  1005.8  0.51  10.9   0.000   0.019   26.9    89   25.0   30.9   112    1     98.2    5 
 9/20/05 12:35a   23.8   23.8   23.8    91   22.2   1.6     W  0.13   6.4     W   23.8   25.6   25.6  1005.8  0.25   5.1   0.000   0.019   27.1    89   25.1   31.2   114    1    100.0    5 
 9/20/05 12:40a   23.8   23.8   23.8    92   22.4   1.6     W  0.13   4.8     W   23.8   25.6   25.6  1005.8  0.25   4.1   0.000   0.019   27.1    88   24.9   31.1   114    1    100.0    5 
 9/20/05 12:45a   23.8   23.8   23.8    92   22.4   3.2     W  0.27   9.7   WSW   23.8   25.6   25.6  1005.9  0.76   8.9   0.000   0.019   27.0    88   24.8   30.9   114    1    100.0    5 
 9/20/05 12:50a   23.8   23.8   23.8    92   22.4   1.6     W  0.13   8.0     W   23.8   25.6   25.6  1005.9  0.76  15.0   0.000   0.019   26.9    88   24.8   30.8   114    1    100.0    5 
 9/20/05 12:55a   23.8   23.9   23.8    92   22.5   4.8     W  0.40  11.3   WSW   23.8   25.7   25.7  1005.9  1.52  27.7   0.000   0.019   26.9    88   24.8   30.8   114    1    100.0    5 
 9/20/05  1:00a   23.9   23.9   23.9    92   22.5   4.8     W  0.40  16.1   WSW   23.9   25.8   25.8  1005.5  2.03  42.4   0.000   0.019   26.9    89   24.9   30.8   114    1    100.0    5 
 9/20/05  1:05a   23.9   23.9   23.9    92   22.5   6.4     W  0.54  12.9     W   23.9   25.8   25.8  1005.5  2.54  53.1   0.000   0.019   26.9    89   24.9   30.8   114    1    100.0    5 
 9/20/05  1:10a   23.9   23.9   23.9    92   22.5   8.0     W  0.67  16.1    NW   23.9   25.8   25.8  1005.5  2.54  42.9   0.000   0.019   26.9    89   24.9   30.8   114    1    100.0    5 
 9/20/05  1:15a   23.9   23.9   23.9    92   22.5   6.4   WSW  0.54  17.7   WSW   23.9   25.8   25.8  1004.8  1.78  50.0   0.000   0.019   26.9    90   25.1   31.0   114    1    100.0    5 
 9/20/05  1:20a   23.9   23.9   23.9    92   22.5   6.4   WSW  0.54  16.1   WSW   23.9   25.8   25.8  1004.8  0.76  21.3   0.000   0.019   26.9    90   25.1   31.0   114    1    100.0    5 
 9/20/05  1:25a   23.9   23.9   23.9    92   22.5   9.7   WSW  0.80  17.7   WSW   23.9   25.8   25.8  1004.8  1.52  24.4   0.000   0.019   26.9    90   25.1   31.0   114    1    100.0    5 
 9/20/05  1:30a   23.8   23.9   23.8    92   22.5  11.3     W  0.94  22.5     W   23.8   25.7   25.7  1004.3  1.52  25.1   0.000   0.019   26.8    89   24.8   30.6   114    1    100.0    5 
 9/20/05  1:35a   23.8   23.9   23.8    93   22.6   9.7     W  0.80  22.5     W   23.8   25.8   25.8  1004.3  1.02  16.0   0.000   0.019   26.9    89   24.9   30.8   114    1    100.0    5 
 9/20/05  1:40a   23.9   23.9   23.9    93   22.7   8.0     W  0.67  22.5     W   23.9   25.9   25.9  1004.3  0.76  11.7   0.000   0.019   26.9    89   24.9   30.8   114    1    100.0    5 
 9/20/05  1:45a   23.9   23.9   23.9    93   22.7   6.4   WSW  0.54  17.7   WSW   23.9   25.9   25.9  1003.9  1.02  18.3   0.000   0.019   26.9    89   24.9   30.8   114    1    100.0    5 
 9/20/05  1:50a   23.9   23.9   23.9    93   22.7   8.0     W  0.67  20.9     W   23.9   25.9   25.9  1003.9  1.27  19.6   0.000   0.019   26.9    89   24.9   30.8   114    1    100.0    5 
 9/20/05  1:55a   23.9   23.9   23.9    93   22.7   9.7     W  0.80  22.5   WSW   23.9   25.9   25.9  1003.9  1.27  29.5   0.000   0.019   26.9    89   24.9   30.8   114    1    100.0    5 
 9/20/05  2:00a   23.9   23.9   23.9    93   22.7  11.3     W  0.94  22.5   WNW   23.9   25.9   25.9  1003.5  1.27  33.0   0.000   0.019   26.7    89   24.8   30.4   114    1    100.0    5 
 9/20/05  2:05a   23.9   23.9   23.9    93   22.7   9.7   WNW  0.80  20.9    NW   23.9   25.9   25.9  1003.5  1.52  25.1   0.000   0.019   26.7    90   24.9   30.4   114    1    100.0    5 
 9/20/05  2:10a   23.9   23.9   23.8    93   22.7  12.9    NW  1.07  30.6    NW   23.6   25.9   25.6  1003.5  1.78  34.5   0.000   0.019   26.7    90   24.9   30.4   114    1    100.0    5 
 9/20/05  2:15a   23.8   23.8   23.8    93   22.6  12.9    NW  1.07  27.4   WNW   23.5   25.7   25.4  1003.7  3.81  71.1   0.000   0.019   26.6    90   24.8   30.2   114    1    100.0    5 
 9/20/05  2:20a   23.7   23.8   23.7    93   22.5  16.1   WNW  1.34  27.4   WNW   22.6   25.5   24.4  1003.7  5.59 124.0   0.000   0.019   26.4    90   24.7   30.0    89    1     78.1    5 
 9/20/05  2:25a   23.7   23.7   23.6    93   22.5   9.7   WNW  0.80  25.7    NW   23.7   25.5   25.5  1003.7  5.84 146.3   0.000   0.019   26.4    90   24.6   29.9   114    1    100.0    5 
 9/20/05  2:30a   23.6   23.7   23.6    93   22.4   9.7     N  0.80  19.3   NNW   23.6   25.4   25.4  1003.8  0.25  25.1   0.000   0.018   26.3    90   24.6   29.7   112    1     98.2    5 
 9/20/05  2:35a   23.7   23.8   23.7    93   22.5   3.2     N  0.27   9.7    NW   23.7   25.5   25.5  1003.8  0.00   1.5   0.000   0.019   26.3    90   24.6   29.7   114    1    100.0    5 
 9/20/05  2:40a   23.8   24.0   23.8    93   22.6   6.4     N  0.54  17.7   NNW   23.8   25.8   25.8  1003.8  0.25   1.5   0.000   0.019   26.3    90   24.6   29.7   114    1    100.0    5 
 9/20/05  2:45a   24.1   24.1   24.0    93   22.9   9.7     N  0.80  19.3     N   24.1   26.1   26.1  1003.6  0.00   1.3   0.000   0.020   26.3    91   24.7   29.9   114    1    100.0    5 
 9/20/05  2:50a   24.1   24.2   24.1    93   22.9  11.3     N  0.94  29.0   NNE   24.1   26.2   26.2  1003.6  0.00   1.3   0.000   0.020   26.2    91   24.6   29.6   114    1    100.0    5 
 9/20/05  2:55a   24.1   24.2   24.1    93   22.9  11.3     N  0.94  24.1   NNW   24.1   26.2   26.2  1003.6  0.00   1.0   0.000   0.020   26.2    92   24.8   29.8   113    1     99.1    5 
 9/20/05  3:00a   24.2   24.2   24.2    92   22.8  11.3   NNW  0.94  22.5   NNW   24.2   26.2   26.2  1003.4  0.00   0.0   0.000   0.020   26.2    92   24.8   29.8   114    1    100.0    5 
 9/20/05  3:05a   24.1   24.2   24.1    92   22.7  12.9     N  1.07  24.1   NNW   23.8   26.1   25.8  1003.4  0.00   0.0   0.000   0.020   26.2    93   24.9   29.8   114    1    100.0    5 
 9/20/05  3:10a   24.1   24.1   24.1    92   22.7   9.7     N  0.80  22.5     N   24.1   26.1   26.1  1003.4  0.00   0.0   0.000   0.020   26.2    93   24.9   29.8   113    1     99.1    5 
 9/20/05  3:15a   24.1   24.1   24.1    92   22.7  12.9     N  1.07  22.5     N   23.8   26.1   25.8  1003.5  0.00   0.0   0.000   0.020   26.1    93   24.9   29.7   114    1    100.0    5 
 9/20/05  3:20a   24.1   24.1   24.1    92   22.7  11.3     N  0.94  20.9   NNW   24.1   26.1   26.1  1003.5  0.00   0.0   0.000   0.020   26.1    93   24.8   29.5   114    1    100.0    5 
 9/20/05  3:25a   24.1   24.1   24.1    91   22.5  11.3     N  0.94  20.9   NNW   24.1   26.0   26.0  1003.5  0.00   0.0   0.000   0.020   26.1    93   24.8   29.5   114    1    100.0    5 
 9/20/05  3:30a   24.1   24.1   24.1    91   22.5   9.7     N  0.80  20.9    NW   24.1   26.0   26.0  1003.6  0.00   0.0   0.000   0.020   26.1    93   24.8   29.5   114    1    100.0    5 
 9/20/05  3:35a   24.2   24.2   24.1    91   22.6   9.7   NNW  0.80  17.7    NW   24.2   26.1   26.1  1003.6  0.00   0.0   0.000   0.020   26.0    93   24.8   29.4   114    1    100.0    5 
 9/20/05  3:40a   24.2   24.3   24.2    91   22.7  11.3     N  0.94  20.9     N   24.2   26.2   26.2  1003.6  0.00   0.0   0.000   0.020   25.9    94   24.9   29.4   114    1    100.0    5 
 9/20/05  3:45a   24.3   24.4   24.3    91   22.8   9.7     N  0.80  22.5     N   24.3   26.3   26.3  1003.7  0.00   0.0   0.000   0.021   25.9    94   24.9   29.4   114    1    100.0    5 
 9/20/05  3:50a   24.4   24.4   24.4    92   23.0   8.0     N  0.67  17.7     N   24.4   26.4   26.4  1003.7  0.00   0.0   0.000   0.021   25.9    95   25.1   29.5   114    1    100.0    5 
 9/20/05  3:55a   24.4   24.6   24.4    92   23.1   9.7   NNW  0.80  20.9    NW   24.4   26.5   26.5  1003.7  0.00   0.0   0.000   0.021   25.9    95   25.1   29.5   114    1    100.0    5 
 9/20/05  4:00a   24.6   24.6   24.6    92   23.2  11.3     N  0.94  19.3     N   24.6   26.7   26.7  1003.7  0.25   0.0   0.000   0.022   25.9    96   25.3   29.6   114    1    100.0    5 
 9/20/05  4:05a   24.6   24.6   24.6    91   23.0  11.3     N  0.94  19.3     N   24.6   26.6   26.6  1003.7  0.00   0.0   0.000   0.022   25.8    96   25.1   29.3   114    1    100.0    5 
 9/20/05  4:10a   24.6   24.6   24.6    91   23.0   9.7     N  0.80  19.3     N   24.6   26.6   26.6  1003.7  0.00   0.0   0.000   0.022   25.9    95   25.1   29.5   113    1     99.1    5 
 9/20/05  4:15a   24.6   24.6   24.6    91   23.0   8.0     N  0.67  19.3     N   24.6   26.6   26.6  1003.8  0.00   0.0   0.000   0.022   26.1    95   25.2   29.9   113    1     99.1    5 
 9/20/05  4:20a   24.6   24.6   24.6    91   23.0   9.7     N  0.80  20.9   NNW   24.6   26.6   26.6  1003.8  0.00   0.0   0.000   0.022   26.2    95   25.4   30.2   114    1    100.0    5 
 9/20/05  4:25a   24.6   24.6   24.6    90   22.8  11.3   NNW  0.94  20.9    NW   24.6   26.6   26.6  1003.8  0.00   0.0   0.000   0.022   26.3    94   25.3   30.3   114    1    100.0    5 
 9/20/05  4:30a   24.6   24.6   24.6    90   22.8   8.0     N  0.67  16.1     N   24.6   26.6   26.6  1003.9  0.00   0.0   0.000   0.022   26.4    94   25.4   30.5   114    1    100.0    5 
 9/20/05  4:35a   24.6   24.7   24.6    90   22.9   9.7   NNW  0.80  22.5    NW   24.6   26.7   26.7  1003.9  0.25   0.0   0.000   0.022   26.5    94   25.5   30.7   114    1    100.0    5 
 9/20/05  4:40a   24.7   24.8   24.6    90   23.0  16.1   NNW  1.34  40.2    NW   23.7   26.8   25.8  1003.9  1.52  34.5   0.000   0.022   26.6    93   25.4   30.8   114    1    100.0    5 
 9/20/05  4:45a   24.2   24.6   23.9    90   22.4  19.3   NNW  1.61  38.6     N   22.7   26.1   24.6  1004.3  1.52  36.8   0.000   0.020   26.7    93   25.4   30.9   113    1     99.1    5 
 9/20/05  4:50a   23.7   23.8   23.7    91   22.2  11.3     N  0.94  27.4     N   23.7   25.5   25.5  1004.3  0.51  21.8   0.000   0.019   26.7    92   25.3   30.7   111    1     97.4    5 
 9/20/05  4:55a   23.7   23.7   23.7    91   22.1  11.3     N  0.94  22.5   NNE   23.7   25.4   25.4  1004.3  0.25   4.8   0.000   0.019   26.7    92   25.3   30.7   113    1     99.1    5 
 9/20/05  5:00a   23.7   23.8   23.7    92   22.3   6.4   NNW  0.54  14.5    NW   23.7   25.6   25.6  1004.3  0.51   6.6   0.000   0.019   26.7    92   25.3   30.7   112    1     98.2    5 
 9/20/05  5:05a   23.9   24.1   23.8    92   22.6   9.7    NW  0.80  12.9   WNW   23.9   25.9   25.9  1004.3  1.52  42.2   0.000   0.019   26.7    91   25.1   30.6   112    1     98.2    5 
 9/20/05  5:10a   24.2   24.3   24.1    92   22.8  11.3    NW  0.94  19.3   WNW   24.2   26.2   26.2  1004.3  0.76  19.8   0.000   0.020   26.7    91   25.1   30.7   113    1     99.1    5 
 9/20/05  5:15a   24.3   24.3   24.3    92   22.9   9.7    NW  0.80  17.7   NNW   24.3   26.3   26.3  1004.2  0.25   6.6   0.000   0.021   26.8    91   25.2   30.8   114    1    100.0    5 
 9/20/05  5:20a   24.3   24.3   24.3    92   22.9   8.0    NW  0.67  16.1   NNW   24.3   26.3   26.3  1004.2  0.51   5.1   0.000   0.021   26.8    91   25.2   30.8   114    1    100.0    5 
 9/20/05  5:25a   24.3   24.4   24.3    92   22.9  11.3    NW  0.94  20.9   WNW   24.3   26.4   26.4  1004.2  0.00   3.0   0.000   0.021   26.8    91   25.2   31.0   114    1    100.0    5 
 9/20/05  5:30a   24.3   24.4   24.3    92   22.9  11.3    NW  0.94  22.5   WNW   24.3   26.4   26.4  1004.3  0.25   3.0   0.000   0.021   26.9    91   25.3   31.1   112    1     98.2    5 
 9/20/05  5:35a   24.2   24.3   24.2    92   22.8   9.7    NW  0.80  22.5   NNW   24.2   26.2   26.2  1004.3  0.25   2.5   0.000   0.020   26.9    91   25.3   31.1   113    1     99.1    5 
 9/20/05  5:40a   24.1   24.2   24.1    92   22.7  11.3   WNW  0.94  19.3    NW   24.1   26.1   26.1  1004.3  0.25   4.1   0.000   0.020   26.9    91   25.3   31.1   113    1     99.1    5 
 9/20/05  5:45a   24.0   24.1   23.9    92   22.6   8.0    NW  0.67  20.9    NW   24.0   26.0   26.0  1004.3  0.51   5.8   0.000   0.020   26.9    91   25.3   31.1   114    1    100.0    5 
 9/20/05  5:50a   23.9   23.9   23.9    92   22.5   9.7   WNW  0.80  20.9   WNW   23.9   25.8   25.8  1004.3  0.51   8.4   0.000   0.019   26.9    90   25.1   31.0   114    1    100.0    5 
 9/20/05  5:55a   23.9   23.9   23.9    92   22.5   9.7   WNW  0.80  16.1    NW   23.9   25.8   25.8  1004.3  0.51   7.9   0.000   0.019   26.9    91   25.3   31.1   114    1    100.0    5 
 9/20/05  6:00a   23.8   23.9   23.8    92   22.4  11.3   WNW  0.94  20.9   NNW   23.8   25.6   25.6  1004.3  0.51  10.2   0.000   0.019   26.9    90   25.1   31.0   114    1    100.0    5 
 9/20/05  6:05a   23.8   23.8   23.8    92   22.4  11.3   WNW  0.94  20.9    NW   23.8   25.6   25.6  1004.3  0.25   5.1   0.000   0.019   26.9    90   25.2   31.1   113    1     99.1    5 
 9/20/05  6:10a   23.7   23.8   23.7    92   22.3  12.9   WNW  1.07  22.5    NW   23.4   25.6   25.3  1004.3  0.51   9.1   0.000   0.019   26.9    90   25.2   31.1   114    1    100.0    5 
 9/20/05  6:15a   23.7   23.7   23.7    92   22.3   9.7   WNW  0.80  19.3     W   23.7   25.4   25.4  1004.3  1.52  45.0   0.000   0.019   26.9    90   25.2   31.1   112    1     98.2    5 
 9/20/05  6:20a   23.6   23.7   23.6    93   22.4   9.7   WNW  0.80  22.5     W   23.6   25.4   25.4  1004.3  1.27  22.4   0.000   0.018   26.9    90   25.2   31.1   114    1    100.0    5 
 9/20/05  6:25a   23.6   23.6   23.6    93   22.4   9.7   WNW  0.80  19.3    NW   23.6   25.4   25.4  1004.3  1.02  22.4   0.000   0.018   26.9    89   25.0   30.9   114    1    100.0    5 
 9/20/05  6:30a   23.6   23.6   23.5    93   22.4  11.3    NW  0.94  29.0     W   23.6   25.3   25.3  1004.4  1.02  26.7   0.000   0.018   26.9    89   25.0   30.9   113    1     99.1    5 
 9/20/05  6:35a   23.5   23.5   23.5    93   22.3   9.7   WNW  0.80  25.7   WNW   23.5   25.2   25.2  1004.4  0.51  26.7   0.000   0.018   26.9    89   25.0   30.9   114    1    100.0    5 
 9/20/05  6:40a   23.5   23.5   23.5    93   22.3   9.7   WNW  0.80  29.0   WNW   23.5   25.2   25.2  1004.4  1.27  32.0   0.000   0.018   26.9    89   25.0   30.9   113    1     99.1    5 
 9/20/05  6:45a   23.5   23.5   23.5    93   22.3  11.3   WNW  0.94  25.7    NW   23.5   25.2   25.2  1004.5  0.51  15.5   0.000   0.018   26.9    89   25.0   30.9   114    1    100.0    5 
 9/20/05  6:50a   23.5   23.5   23.5    93   22.3  11.3    NW  0.94  19.3    NW   23.5   25.2   25.2  1004.5  0.76  14.0   0.000   0.018   26.9    89   25.0   30.9   113    1     99.1    5 
 9/20/05  6:55a   23.6   23.6   23.5    93   22.4  11.3    NW  0.94  27.4   WNW   23.6   25.3   25.3  1004.5  0.00   2.0   0.000   0.018   26.9    88   24.7   30.7   114    1    100.0    5 
 9/20/05  7:00a   23.6   23.6   23.6    93   22.4   9.7   WNW  0.80  25.7   NNW   23.6   25.4   25.4  1004.8  0.00   1.3   0.000   0.018   26.8    89   24.9   30.7   114    1    100.0    5 
 9/20/05  7:05a   23.6   23.6   23.6    93   22.4  12.9    NW  1.07  22.5   WNW   23.3   25.4   25.1  1004.8  0.25   1.3   0.000   0.018   26.8    89   24.8   30.6   114    1    100.0    5 
 9/20/05  7:10a   23.6   23.6   23.6    93   22.4   9.7    NW  0.80  19.3    NW   23.6   25.4   25.4  1004.8  0.25   2.0   0.000   0.018   26.7    89   24.7   30.3   114    1    100.0    5 
 9/20/05  7:15a   23.6   23.6   23.6    93   22.4   8.0   WNW  0.67  17.7   WNW   23.6   25.4   25.4  1005.2  0.25   3.0   0.000   0.018   26.7    90   24.9   30.4   112    1     98.2    5 
 9/20/05  7:20a   23.6   23.6   23.6    93   22.4   8.0    NW  0.67  19.3     W   23.6   25.4   25.4  1005.2  0.25   3.6   0.000   0.018   26.6    90   24.8   30.3   113    1     99.1    5 
 9/20/05  7:25a   23.7   23.7   23.6    93   22.5   9.7   NNW  0.80  17.7     N   23.7   25.5   25.5  1005.2  2.03  82.3   0.000   0.019   26.7    90   24.9   30.4   114    1    100.0    5 
 9/20/05  7:30a   23.7   23.7   23.7    93   22.5   6.4    NW  0.54  17.7     N   23.7   25.5   25.5  1005.4  1.27  27.7   0.000   0.019   26.7    90   24.9   30.4   114    1    100.0    5 
 9/20/05  7:35a   23.7   23.7   23.7    93   22.5   6.4    NW  0.54  16.1     N   23.7   25.5   25.5  1005.4  0.51  19.3   0.000   0.019   26.6    90   24.8   30.2   114    1    100.0    5 
 9/20/05  7:40a   23.7   23.7   23.7    93   22.5  11.3    NW  0.94  25.7   WNW   23.7   25.5   25.5  1005.4  0.25   6.1   0.000   0.019   26.6    90   24.8   30.2   114    1    100.0    5 
 9/20/05  7:45a   23.7   23.7   23.7    93   22.5  11.3   WNW  0.94  20.9   WNW   23.7   25.5   25.5  1005.6  0.51   5.1   0.000   0.019   26.6    91   25.0   30.3   113    1     99.1    5 
 9/20/05  7:50a   23.7   23.7   23.7    93   22.5   9.7    NW  0.80  20.9    NW   23.7   25.5   25.5  1005.6  0.51   9.7   0.000   0.019   26.4    91   24.9   30.1   113    1     99.1    5 
 9/20/05  7:55a   23.7   23.7   23.7    93   22.5   9.7    NW  0.80  19.3   WNW   23.7   25.5   25.5  1005.6  0.25   9.7   0.000   0.019   26.5    91   24.9   30.2   114    1    100.0    5 
 9/20/05  8:00a   23.7   23.8   23.7    93   22.5   6.4    NW  0.54  19.3    NW   23.7   25.5   25.5  1005.6  0.51   5.3   0.000   0.019   26.4    91   24.9   30.1   113    1     99.1    5 
 9/20/05  8:05a   23.8   23.8   23.7    93   22.6  11.3   WNW  0.94  22.5    NW   23.8   25.7   25.7  1005.6  0.25   4.6   0.000   0.019   26.4    91   24.9   30.1   114    1    100.0    5 
 9/20/05  8:10a   23.8   23.8   23.8    93   22.6   8.0   WNW  0.67  19.3   WSW   23.8   25.7   25.7  1005.6  0.76  19.3   0.000   0.019   26.4    91   24.9   30.1   113    1     99.1    5 
 9/20/05  8:15a   23.8   23.8   23.8    93   22.6   9.7    NW  0.80  22.5     W   23.8   25.7   25.7  1005.7  0.00   2.8   0.000   0.019   26.4    92   25.0   30.2   114    1    100.0    5 
 9/20/05  8:20a   23.8   23.8   23.8    94   22.8   9.7   WNW  0.80  22.5     W   23.8   25.7   25.7  1005.7  0.51   7.4   0.000   0.019   26.4    92   25.0   30.2   114    1    100.0    5 
 9/20/05  8:25a   23.8   23.8   23.8    94   22.8   9.7   WNW  0.80  19.3    NW   23.8   25.7   25.7  1005.7  0.00   2.5   0.000   0.019   26.4    92   25.0   30.2    79    1     69.3    5 
 9/20/05  8:30a   23.8   23.8   23.8    94   22.8   9.7   WNW  0.80  20.9     W   23.8   25.7   25.7  1005.5  0.00   1.3   0.000   0.019   26.4    92   25.0   30.2    88    1     77.2    5 
 9/20/05  8:35a   23.9   23.9   23.8    94   22.9   8.0   WNW  0.67  16.1     W   23.9   25.9   25.9  1005.5  0.51   4.3   0.000   0.019   26.4    92   25.0   30.2   113    1     99.1    5 
 9/20/05  8:40a   24.0   24.0   23.9    94   23.0   9.7     W  0.80  22.5   NNW   24.0   26.1   26.1  1005.5  0.25   4.3   0.000   0.020   26.4    92   25.0   30.2   114    1    100.0    5 
 9/20/05  8:45a   24.0   24.0   24.0    93   22.8   9.7   WNW  0.80  20.9   WNW   24.0   26.0   26.0  1005.7  0.25   3.8   0.000   0.020   26.4    92   25.0   30.2   114    1    100.0    5 
 9/20/05  8:50a   24.0   24.0   24.0    93   22.8   8.0   WNW  0.67  20.9   WNW   24.0   26.0   26.0  1005.7  0.25   7.9   0.000   0.020   26.4    92   25.0   30.2   113    1     99.1    5 
 9/20/05  8:55a   24.0   24.1   24.0    93   22.8   9.7   WNW  0.80  25.7   WNW   24.0   26.0   26.0  1005.7  1.02  12.7   0.000   0.020   26.4    92   25.0   30.2   114    1    100.0    5 
 9/20/05  9:00a   24.0   24.0   23.9    93   22.8   8.0   WNW  0.67  16.1   NNW   24.0   26.0   26.0  1005.8  0.76  18.0   0.000   0.020   26.4    92   25.0   30.2    95    1     83.3    5 
 9/20/05  9:05a   23.9   23.9   23.9    93   22.7   8.0   WNW  0.67  17.7     W   23.9   25.9   25.9  1005.8  0.00   2.0   0.000   0.019   26.4    92   25.0   30.2   114    1    100.0    5 
 9/20/05  9:10a   23.9   24.0   23.9    93   22.7   8.0   WNW  0.67  16.1     W   23.9   25.9   25.9  1005.8  0.00   1.3   0.000   0.019   26.6    92   25.1   30.5   114    1    100.0    5 
 9/20/05  9:15a   24.0   24.1   24.0    93   22.8   6.4     W  0.54  19.3    NW   24.0   26.0   26.0  1005.8  0.25   1.3   0.000   0.020   26.6    92   25.1   30.5   114    1    100.0    5 
 9/20/05  9:20a   24.0   24.1   24.0    93   22.8   9.7     W  0.80  20.9   WSW   24.0   26.0   26.0  1005.8  0.00   1.0   0.000   0.020   26.6    92   25.1   30.5   114    1    100.0    5 
 9/20/05  9:25a   24.1   24.3   24.1    93   22.9   9.7     W  0.80  20.9    NW   24.1   26.2   26.2  1005.8  0.00   1.0   0.000   0.020   26.6    92   25.1   30.5   114    1    100.0    5 
 9/20/05  9:30a   24.3   24.4   24.3    93   23.1   9.7     W  0.80  19.3   WSW   24.3   26.3   26.3  1005.6  0.00   1.0   0.000   0.021   26.6    92   25.1   30.5   114    1    100.0    5 
 9/20/05  9:35a   24.4   24.4   24.4    93   23.2   8.0   WNW  0.67  19.3     W   24.4   26.5   26.5  1005.6  0.00   0.0   0.000   0.021   26.6    93   25.3   30.6   114    1    100.0    5 
 9/20/05  9:40a   24.4   24.4   24.4    93   23.2   8.0     W  0.67  17.7   WNW   24.4   26.6   26.6  1005.6  0.00   0.0   0.000   0.021   26.7    93   25.4   30.9   114    1    100.0    5 
 9/20/05  9:45a   24.4   24.4   24.4    92   23.1   8.0   WNW  0.67  17.7   WNW   24.4   26.5   26.5  1005.6  0.00   0.0   0.000   0.021   26.7    93   25.4   30.9   113    1     99.1    5 
 9/20/05  9:50a   24.5   24.6   24.4    93   23.3   6.4   WNW  0.54  14.5     W   24.5   26.6   26.6  1005.6  0.00   0.0   0.000   0.021   26.7    93   25.4   30.9   111    1     97.4    5 
 9/20/05  9:55a   24.7   24.7   24.7    92   23.3   8.0   WNW  0.67  25.7   WSW   24.7   26.8   26.8  1005.6  0.25   0.0   0.000   0.022   26.8    93   25.6   31.2   114    1    100.0    5 
 9/20/05 10:00a   24.7   24.8   24.7    92   23.3   8.0     W  0.67  17.7   WNW   24.7   26.8   26.8  1005.7  0.00   0.0   0.000   0.022   26.8    93   25.6   31.2   114    1    100.0    5 
 9/20/05 10:05a   24.7   24.8   24.7    92   23.3   9.7     W  0.80  17.7   WNW   24.7   26.8   26.8  1005.7  0.00   0.0   0.000   0.022   26.8    93   25.6   31.2   114    1    100.0    5 
 9/20/05 10:10a   24.7   24.7   24.7    92   23.3   8.0     W  0.67  16.1   WNW   24.7   26.8   26.8  1005.7  0.25   1.0   0.000   0.022   26.8    93   25.6   31.2   113    1     99.1    5 
 9/20/05 10:15a   24.7   24.7   24.7    92   23.3   8.0     W  0.67  17.7   NNW   24.7   26.8   26.8  1005.8  0.51   4.8   0.000   0.022   26.8    93   25.6   31.2   114    1    100.0    5 
 9/20/05 10:20a   24.7   24.7   24.7    92   23.3   6.4   WNW  0.54  19.3     W   24.7   26.8   26.8  1005.8  0.51   7.4   0.000   0.022   26.9    93   25.7   31.4   114    1    100.0    5 
 9/20/05 10:25a   24.6   24.7   24.6    92   23.2   6.4   WNW  0.54  12.9    NW   24.6   26.8   26.8  1005.8  0.25   7.4   0.000   0.022   26.9    93   25.7   31.4   114    1    100.0    5 
 9/20/05 10:30a   24.7   24.7   24.6    92   23.3   6.4   WNW  0.54  12.9   WNW   24.7   26.8   26.8  1006.0  0.51   5.1   0.000   0.022   26.9    93   25.7   31.4   114    1    100.0    5 
 9/20/05 10:35a   24.7   24.7   24.7    92   23.3   4.8     W  0.40  12.9    NW   24.7   26.8   26.8  1006.0  0.25   6.1   0.000   0.022   26.9    93   25.7   31.4   114    1    100.0    5 
 9/20/05 10:40a   24.7   24.8   24.7    92   23.3   4.8     W  0.40  12.9     W   24.7   26.8   26.8  1006.0  0.51   4.3   0.000   0.022   26.9    94   25.9   31.7   114    1    100.0    5 
 9/20/05 10:45a   24.7   24.8   24.7    92   23.3   4.8     W  0.40  12.9   WSW   24.7   26.9   26.9  1005.9  0.00   2.5   0.000   0.022   27.1    93   25.8   31.8   114    1    100.0    5 
 9/20/05 10:50a   24.6   24.7   24.6    92   23.2   9.7   WNW  0.80  19.3   WNW   24.6   26.8   26.8  1005.9  0.25   2.5   0.000   0.022   27.1    93   25.8   31.8   114    1    100.0    5 
 9/20/05 10:55a   24.6   24.7   24.6    92   23.2   8.0     W  0.67  17.7     W   24.6   26.7   26.7  1005.9  0.25   2.3   0.000   0.022   27.1    92   25.6   31.7   114    1    100.0    5 
 9/20/05 11:00a   24.7   24.7   24.7    92   23.3   6.4     W  0.54  19.3    NW   24.7   26.8   26.8  1005.8  0.00   1.8   0.000   0.022   27.0    92   25.6   31.6   114    1    100.0    5 
 9/20/05 11:05a   24.7   24.8   24.7    92   23.3   6.4     W  0.54  16.1     W   24.7   26.9   26.9  1005.8  0.00   1.3   0.000   0.022   26.9    93   25.7   31.6   114    1    100.0    5 
 9/20/05 11:10a   24.7   24.8   24.7    92   23.3   9.7     W  0.80  20.9   WSW   24.7   26.9   26.9  1005.8  0.00   1.0   0.000   0.022   27.0    93   25.8   31.7   113    1     99.1    5 
 9/20/05 11:15a   24.7   24.8   24.7    92   23.3   6.4     W  0.54  22.5     W   24.7   26.9   26.9  1005.6  0.25   1.0   0.000   0.022   26.9    93   25.7   31.6   114    1    100.0    5 
 9/20/05 11:20a   24.7   24.8   24.7    92   23.3   6.4     W  0.54  20.9   WSW   24.7   26.9   26.9  1005.6  0.00   0.0   0.000   0.022   26.9    93   25.7   31.6   113    1     99.1    5 
 9/20/05 11:25a   24.8   24.8   24.7    92   23.4   8.0     W  0.67  17.7     W   24.8   27.0   27.0  1005.6  0.25   1.8   0.000   0.022   27.1    93   25.8   31.8   114    1    100.0    5 
 9/20/05 11:30a   24.7   24.7   24.7    92   23.3   9.7     W  0.80  19.3     W   24.7   26.8   26.8  1005.6  0.00   1.8   0.000   0.022   27.1    93   25.8   31.8   114    1    100.0    5 
 9/20/05 11:35a   24.7   24.7   24.7    92   23.3   8.0     W  0.67  20.9   WSW   24.7   26.8   26.8  1005.6  0.00   1.3   0.000   0.022   27.1    93   25.8   31.8   114    1    100.0    5 
 9/20/05 11:40a   24.7   24.7   24.7    92   23.3   8.0     W  0.67  20.9     W   24.7   26.8   26.8  1005.6  0.25   1.3   0.000   0.022   27.1    93   25.8   31.8   113    1     99.1    5 
 9/20/05 11:45a   24.7   24.8   24.7    92   23.3   9.7     W  0.80  25.7   WSW   24.7   26.8   26.8  1005.5  0.00   1.0   0.000   0.022   27.1    93   25.8   31.8   114    1    100.0    5 
 9/20/05 11:50a   24.8   24.8   24.7    91   23.2   6.4     W  0.54  25.7     W   24.8   26.9   26.9  1005.5  0.00   1.0   0.000   0.022   27.1    93   25.8   31.8   114    1    100.0    5 
 9/20/05 11:55a   24.8   24.9   24.8    91   23.3   8.0     W  0.67  19.3     W   24.8   27.0   27.0  1005.5  0.00   1.0   0.000   0.023   27.1    93   25.8   31.8   114    1    100.0    5 
 9/20/05 12:00p   25.0   25.1   24.9    91   23.4   6.4     W  0.54  12.9   WSW   25.0   27.3   27.3  1005.4  0.00   0.0   0.000   0.023   27.1    93   25.8   31.8   114    1    100.0    5 
 9/20/05 12:05p   25.2   25.3   25.1    91   23.6   6.4     W  0.54  16.1   WNW   25.2   27.6   27.6  1005.4  0.00   0.0   0.000   0.024   27.2    93   25.9   32.1   113    1     99.1    5 
 9/20/05 12:10p   25.2   25.3   25.2    90   23.4   6.4     W  0.54  16.1     W   25.2   27.5   27.5  1005.4  0.00   0.0   0.000   0.024   27.2    93   25.9   32.1   114    1    100.0    5 
 9/20/05 12:15p   25.2   25.3   25.2    90   23.5   6.4     W  0.54  11.3   WNW   25.2   27.6   27.6  1005.2  0.00   0.0   0.000   0.024   27.2    93   25.9   32.1   114    1    100.0    5 
 9/20/05 12:20p   25.3   25.3   25.3    90   23.5   6.4     W  0.54  17.7   WSW   25.3   27.7   27.7  1005.2  0.00   0.0   0.000   0.024   27.3    93   26.0   32.4   114    1    100.0    5 
 9/20/05 12:25p   25.4   25.6   25.3    90   23.7   4.8     W  0.40  12.9   WNW   25.4   28.0   28.0  1005.2  0.00   0.0   0.000   0.025   27.3    93   26.0   32.4   114    1    100.0    5 
 9/20/05 12:30p   25.4   25.6   25.4    89   23.5   8.0     W  0.67  17.7     W   25.4   27.9   27.9  1004.9  0.25   0.0   0.000   0.025   27.4    93   26.2   32.8   114    1    100.0    5 
 9/20/05 12:35p   25.3   25.4   25.3    89   23.4   8.0     W  0.67  17.7     W   25.3   27.8   27.8  1004.9  0.00   0.0   0.000   0.024   27.4    93   26.2   32.8   114    1    100.0    5 
 9/20/05 12:40p   25.5   25.6   25.4    89   23.6   6.4     W  0.54  16.1   WNW   25.5   28.1   28.1  1004.9  0.00   0.0   0.000   0.025   27.4    92   26.0   32.6   114    1    100.0    5 
 9/20/05 12:45p   25.6   25.6   25.6    88   23.4   8.0     W  0.67  16.1     W   25.6   28.1   28.1  1004.7  0.00   0.0   0.000   0.025   27.4    92   26.0   32.8   112    1     98.2    5 
 9/20/05 12:50p   25.6   25.8   25.6    89   23.7   6.4     W  0.54  19.3   WNW   25.6   28.2   28.2  1004.7  0.00   0.0   0.000   0.025   27.5    92   26.1   32.9   114    1    100.0    5 
 9/20/05 12:55p   25.7   25.7   25.7    88   23.5   6.4     W  0.54  16.1   WSW   25.7   28.3   28.3  1004.7  0.25   0.0   0.000   0.025   27.5    92   26.1   32.9   114    1    100.0    5 
 9/20/05  1:00p   25.8   25.8   25.7    88   23.6   6.4     W  0.54  19.3     W   25.8   28.4   28.4  1004.5  0.00   0.0   0.000   0.026   27.5    92   26.1   32.9   114    1    100.0    5 
 9/20/05  1:05p   25.7   25.7   25.7    88   23.5   9.7     W  0.80  19.3   WNW   25.7   28.3   28.3  1004.5  0.00   0.0   0.000   0.025   27.5    92   26.1   32.9   113    1     99.1    5 
 9/20/05  1:10p   25.7   25.8   25.7    89   23.8   4.8     W  0.40  11.3    NW   25.7   28.4   28.4  1004.5  0.25   1.0   0.000   0.026   27.6    92   26.2   33.3   113    1     99.1    5 
 9/20/05  1:15p   25.8   25.8   25.8    88   23.7   4.8     W  0.40  17.7   WNW   25.8   28.6   28.6  1004.3  0.00   1.0   0.000   0.026   27.6    92   26.2   33.3   114    1    100.0    5 
 9/20/05  1:20p   25.8   25.8   25.7    88   23.6   8.0     W  0.67  17.7   WSW   25.8   28.4   28.4  1004.3  0.00   1.0   0.000   0.026   27.6    92   26.2   33.3   114    1    100.0    5 
 9/20/05  1:25p   25.7   25.8   25.7    88   23.6   8.0   WNW  0.67  19.3   WNW   25.7   28.4   28.4  1004.3  0.00   1.0   0.000   0.026   27.6    91   26.0   33.1   114    1    100.0    5 
 9/20/05  1:30p   25.8   25.8   25.7    87   23.4   8.0     W  0.67  19.3   WSW   25.8   28.4   28.4  1004.2  0.00   0.0   0.000   0.026   27.6    91   26.0   33.1   114    1    100.0    5 
 9/20/05  1:35p   25.7   25.8   25.7    87   23.4   8.0     W  0.67  16.1     W   25.7   28.3   28.3  1004.2  0.00   0.0   0.000   0.026   27.6    91   26.0   33.1   114    1    100.0    5 
 9/20/05  1:40p   25.7   25.8   25.7    86   23.2   9.7   WNW  0.80  20.9   WSW   25.7   28.2   28.2  1004.2  0.00   0.0   0.000   0.026   27.6    90   25.8   32.9   113    1     99.1    5 
 9/20/05  1:45p   25.9   25.9   25.8    85   23.2   6.4    NW  0.54  17.7    NW   25.9   28.4   28.4  1004.0  0.00   0.0   0.000   0.026   27.5    91   25.9   32.8   114    1    100.0    5 
 9/20/05  1:50p   26.0   26.1   25.9    85   23.3   6.4     W  0.54  19.3     W   26.0   28.6   28.6  1004.0  0.00   0.0   0.000   0.027   27.4    91   25.8   32.4   114    1    100.0    5 
 9/20/05  1:55p   26.1   26.1   26.1    84   23.1   8.0     W  0.67  19.3   WSW   26.1   28.6   28.6  1004.0  0.00   0.0   0.000   0.027   27.4    91   25.8   32.4   114    1    100.0    5 
 9/20/05  2:00p   26.2   26.3   26.1    83   23.1   9.7     W  0.80  27.4     W   26.2   28.7   28.7  1003.9  0.00   0.0   0.000   0.027   27.3    91   25.7   32.3   114    1    100.0    5 
 9/20/05  2:05p   26.3   26.4   26.3    82   23.0   8.0     W  0.67  19.3     W   26.3   28.8   28.8  1003.9  0.00   0.0   0.000   0.028   27.3    91   25.7   32.1   114    1    100.0    5 
 9/20/05  2:10p   26.4   26.5   26.4    83   23.3   8.0   WNW  0.67  19.3     W   26.4   29.1   29.1  1003.9  0.00   0.0   0.000   0.028   27.3    90   25.5   31.9   113    1     99.1    5 
 9/20/05  2:15p   26.5   26.6   26.5    81   23.0  11.3     W  0.94  20.9     W   26.5   29.0   29.0  1003.8  0.00   0.0   0.000   0.028   27.3    91   25.7   32.1   114    1    100.0    5 
 9/20/05  2:20p   26.6   26.6   26.5    81   23.0   8.0     W  0.67  17.7     W   26.6   29.1   29.1  1003.8  0.00   0.0   0.000   0.029   27.3    90   25.5   31.9   114    1    100.0    5 
 9/20/05  2:25p   26.5   26.5   26.5    81   23.0  11.3     W  0.94  19.3   WSW   26.5   29.0   29.0  1003.8  0.00   0.0   0.000   0.028   27.4    90   25.6   32.3   114    1    100.0    5 
 9/20/05  2:30p   26.5   26.6   26.5    81   23.0   8.0     W  0.67  19.3   WSW   26.5   29.0   29.0  1003.7  0.00   0.0   0.000   0.028   27.3    90   25.5   31.9   114    1    100.0    5 
 9/20/05  2:35p   26.6   26.6   26.5    79   22.6  11.3   WNW  0.94  25.7   WSW   26.6   28.9   28.9  1003.7  0.00   0.0   0.000   0.029   27.3    89   25.3   31.8   114    1    100.0    5 
 9/20/05  2:40p   26.5   26.5   26.5    80   22.8   9.7     W  0.80  25.7   WSW   26.5   28.9   28.9  1003.7  0.00   0.0   0.000   0.028   27.4    89   25.4   32.1   114    1    100.0    5 
 9/20/05  2:45p   26.4   26.5   26.4    81   22.9  11.3   WSW  0.94  24.1   WSW   26.4   28.9   28.9  1003.7  0.00   0.0   0.000   0.028   27.3    88   25.1   31.6   114    1    100.0    5 
 9/20/05  2:50p   26.3   26.4   26.3    80   22.6  11.3     W  0.94  29.0     W   26.3   28.6   28.6  1003.7  0.00   0.0   0.000   0.028   27.3    88   25.1   31.6   114    1    100.0    5 
 9/20/05  2:55p   26.3   26.3   26.3    82   23.0   8.0   WNW  0.67  19.3    NW   26.3   28.7   28.7  1003.7  0.00   0.0   0.000   0.028   27.3    88   25.1   31.6   114    1    100.0    5 
 9/20/05  3:00p   26.2   26.3   26.2    81   22.7   9.7     W  0.80  22.5   WSW   26.2   28.5   28.5  1003.7  0.00   0.0   0.000   0.027   27.3    88   25.1   31.6   114    1    100.0    5 
 9/20/05  3:05p   26.2   26.3   26.2    82   22.9   6.4     W  0.54  12.9    NW   26.2   28.6   28.6  1003.7  0.00   0.0   0.000   0.027   27.3    88   25.1   31.6   114    1    100.0    5 
 9/20/05  3:10p   26.2   26.3   26.2    82   22.9   8.0     W  0.67  17.7     W   26.2   28.6   28.6  1003.7  0.00   0.0   0.000   0.027   27.3    89   25.3   31.8   114    1    100.0    5 
 9/20/05  3:15p   26.2   26.2   26.2    83   23.0   4.8   WSW  0.40  12.9     W   26.2   28.6   28.6  1003.9  0.00   0.0   0.000   0.027   27.3    89   25.3   31.8   114    1    100.0    5 
 9/20/05  3:20p   26.1   26.2   26.1    83   23.0   6.4     W  0.54  17.7     W   26.1   28.5   28.5  1003.9  0.00   0.0   0.000   0.027   27.3    89   25.3   31.8   114    1    100.0    5 
 9/20/05  3:25p   25.9   25.9   25.9    84   23.0   4.8     W  0.40  16.1     W   25.9   28.4   28.4  1003.9  0.00   0.0   0.000   0.026   27.3    89   25.3   31.8   114    1    100.0    5 
 9/20/05  3:30p   25.9   25.9   25.8    84   23.0   6.4     W  0.54  12.9     W   25.9   28.3   28.3  1004.0  0.00   0.0   0.000   0.026   27.3    89   25.3   31.8   114    1    100.0    5 
 9/20/05  3:35p   25.8   25.8   25.8    84   22.9   6.4     W  0.54  12.9    NW   25.8   28.1   28.1  1004.0  0.00   0.0   0.000   0.026   27.3    89   25.3   31.8   114    1    100.0    5 
 9/20/05  3:40p   25.8   25.8   25.8    84   22.9   6.4     W  0.54  17.7     W   25.8   28.1   28.1  1004.0  0.00   0.0   0.000   0.026   27.3    89   25.3   31.8   114    1    100.0    5 
 9/20/05  3:45p   25.8   25.8   25.8    84   22.9   8.0     W  0.67  16.1   WNW   25.8   28.1   28.1  1004.1  0.00   0.0   0.000   0.026   27.3    89   25.3   31.8   113    1     99.1    5 
 9/20/05  3:50p   25.7   25.8   25.7    83   22.6   9.7     W  0.80  19.3     W   25.7   27.9   27.9  1004.1  0.00   0.0   0.000   0.026   27.3    89   25.3   31.8   114    1    100.0    5 
 9/20/05  3:55p   25.7   25.7   25.7    84   22.8   6.4     W  0.54  14.5     W   25.7   27.9   27.9  1004.1  0.00   0.0   0.000   0.025   27.3    88   25.1   31.6   114    1    100.0    5 
 9/20/05  4:00p   25.7   25.7   25.6    84   22.8   4.8   WSW  0.40  11.3   WSW   25.7   27.9   27.9  1004.1  0.00   0.0   0.000   0.025   27.2    88   25.0   31.3   114    1    100.0    5 
 9/20/05  4:05p   25.6   25.6   25.6    84   22.7   6.4     W  0.54  14.5   WSW   25.6   27.8   27.8  1004.1  0.00   0.0   0.000   0.025   27.2    88   25.0   31.3   114    1    100.0    5 
 9/20/05  4:10p   25.6   25.7   25.6    85   22.8   3.2     W  0.27  11.3     W   25.6   27.8   27.8  1004.1  0.00   0.0   0.000   0.025   27.2    88   25.0   31.3   114    1    100.0    5 
 9/20/05  4:15p   25.7   25.7   25.6    84   22.8   4.8     W  0.40  12.9     W   25.7   27.9   27.9  1004.3  0.00   0.0   0.000   0.025   27.2    88   25.0   31.3   114    1    100.0    5 
 9/20/05  4:20p   25.7   25.7   25.6    84   22.8   3.2   WSW  0.27   9.7   SSW   25.7   27.9   27.9  1004.3  0.00   0.0   0.000   0.025   27.2    89   25.2   31.5   114    1    100.0    5 
 9/20/05  4:25p   25.7   25.7   25.7    83   22.6   3.2     W  0.27   9.7   WSW   25.7   27.8   27.8  1004.3  0.00   0.0   0.000   0.025   27.3    89   25.3   31.8   114    1    100.0    5 
 9/20/05  4:30p   25.7   25.7   25.7    83   22.6   1.6   WSW  0.13   3.2   WSW   25.7   27.8   27.8  1004.4  0.00   0.0   0.000   0.025   27.3    88   25.1   31.6   114    1    100.0    5 
 9/20/05  4:35p   25.7   25.8   25.7    83   22.6   3.2     W  0.27   9.7   SSW   25.7   27.8   27.8  1004.4  0.00   0.0   0.000   0.025   27.3    88   25.1   31.6   108    1     94.7    5 
 9/20/05  4:40p   25.7   25.7   25.7    83   22.6   1.6     W  0.13   9.7     W   25.7   27.8   27.8  1004.4  0.25   0.0   0.000   0.025   27.3    88   25.1   31.6   113    1     99.1    5 
 9/20/05  4:45p   25.7   25.7   25.7    83   22.6   3.2     W  0.27   9.7     W   25.7   27.8   27.8  1004.7  0.00   0.0   0.000   0.025   27.3    88   25.1   31.6   114    1    100.0    5 
 9/20/05  4:50p   25.7   25.7   25.7    84   22.8   1.6     W  0.13   4.8   WNW   25.7   27.9   27.9  1004.7  0.00   0.0   0.000   0.025   27.3    88   25.1   31.6   114    1    100.0    5 
 9/20/05  4:55p   25.7   25.7   25.6    84   22.8   3.2     W  0.27   8.0     W   25.7   27.9   27.9  1004.7  0.00   0.0   0.000   0.025   27.3    88   25.1   31.6   114    1    100.0    5 
 9/20/05  5:00p   25.6   25.7   25.6    84   22.7   1.6     W  0.13   8.0     W   25.6   27.8   27.8  1004.8  0.00   0.0   0.000   0.025   27.3    88   25.1   31.6   114    1    100.0    5 
 9/20/05  5:05p   25.6   25.7   25.6    84   22.7   1.6     W  0.13   8.0     W   25.6   27.8   27.8  1004.8  0.00   0.0   0.000   0.025   27.3    88   25.1   31.6   114    1    100.0    5 
 9/20/05  5:10p   25.6   25.7   25.6    85   22.8   0.0     W  0.00   1.6     W   25.6   27.8   27.8  1004.8  0.00   0.0   0.000   0.025   27.3    89   25.4   31.9   114    1    100.0    5 
 9/20/05  5:15p   25.6   25.6   25.6    85   22.8   0.0   WSW  0.00   3.2     W   25.6   27.8   27.8  1005.0  0.00   0.0   0.000   0.025   27.4    89   25.4   32.1   114    1    100.0    5 
 9/20/05  5:20p   25.6   25.6   25.6    85   22.8   1.6   WSW  0.13   4.8    SW   25.6   27.8   27.8  1005.0  0.00   0.0   0.000   0.025   27.4    88   25.2   31.9   114    1    100.0    5 
 9/20/05  5:25p   25.5   25.6   25.4    85   22.8   0.0    SW  0.00   3.2    SW   25.5   27.8   27.8  1005.0  0.00   0.0   0.000   0.025   27.4    88   25.2   31.9   114    1    100.0    5 
 9/20/05  5:30p   25.4   25.4   25.4    85   22.7   1.6   SSW  0.13   4.8   SSW   25.4   27.7   27.7  1005.1  0.00   0.0   0.000   0.025   27.4    88   25.2   31.9   114    1    100.0    5 
 9/20/05  5:35p   25.3   25.4   25.3    85   22.6   0.0   SSW  0.00   3.2   SSW   25.3   27.5   27.5  1005.1  0.00   0.0   0.000   0.024   27.4    88   25.2   31.9   114    1    100.0    5 
 9/20/05  5:40p   25.3   25.3   25.3    85   22.6   1.6   SSW  0.13   4.8     S   25.3   27.5   27.5  1005.1  0.00   0.0   0.000   0.024   27.4    88   25.2   31.9   114    1    100.0    5 
 9/20/05  5:45p   25.3   25.3   25.3    85   22.6   1.6   SSW  0.13   6.4   SSW   25.3   27.4   27.4  1005.0  0.00   0.0   0.000   0.024   27.4    88   25.2   31.9   114    1    100.0    5 
 9/20/05  5:50p   25.3   25.3   25.3    85   22.6   1.6    SW  0.13   4.8    SW   25.3   27.4   27.4  1005.0  0.00   0.0   0.000   0.024   27.3    88   25.1   31.6   114    1    100.0    5 
 9/20/05  5:55p   25.3   25.3   25.3    85   22.6   0.0     S  0.00   4.8   SSW   25.3   27.4   27.4  1005.0  0.00   0.0   0.000   0.024   27.4    88   25.2   31.9   114    1    100.0    5 
 9/20/05  6:00p   25.3   25.3   25.3    85   22.6   0.0   SSW  0.00   3.2     S   25.3   27.4   27.4  1005.2  0.00   0.0   0.000   0.024   27.3    88   25.1   31.6   114    1    100.0    5 
 9/20/05  6:05p   25.3   25.3   25.3    85   22.6   0.0   SSW  0.00   3.2   SSW   25.3   27.4   27.4  1005.2  0.00   0.0   0.000   0.024   27.3    88   25.1   31.6   114    1    100.0    5 
 9/20/05  6:10p   25.3   25.3   25.3    85   22.6   0.0   SSW  0.00   1.6   SSW   25.3   27.4   27.4  1005.2  0.00   0.0   0.000   0.024   27.3    87   25.0   31.6   113    1     99.1    5 
 9/20/05  6:15p   25.2   25.3   25.2    85   22.5   0.0   ---  0.00   0.0   ---   25.2   27.3   27.3  1005.4  0.00   0.0   0.000   0.024   27.3    88   25.1   31.6   113    1     99.1    5 
 9/20/05  6:20p   25.2   25.2   25.2    85   22.5   0.0   SSW  0.00   4.8    SW   25.2   27.3   27.3  1005.4  0.00   0.0   0.000   0.024   27.3    88   25.1   31.6   113    1     99.1    5 
 9/20/05  6:25p   25.2   25.2   25.2    86   22.7   0.0   SSW  0.00   1.6   SSW   25.2   27.3   27.3  1005.4  0.00   0.0   0.000   0.024   27.3    88   25.1   31.6   114    1    100.0    5 
 9/20/05  6:30p   25.2   25.3   25.2    86   22.7   0.0   SSW  0.00   8.0   SSW   25.2   27.3   27.3  1005.7  0.00   0.0   0.000   0.024   27.3    88   25.1   31.6   114    1    100.0    5 
 9/20/05  6:35p   25.2   25.3   25.2    86   22.7   0.0   SSW  0.00   3.2   SSW   25.2   27.4   27.4  1005.7  0.00   0.0   0.000   0.024   27.2    88   25.0   31.3   114    1    100.0    5 
 9/20/05  6:40p   25.2   25.2   25.2    85   22.5   1.6    SW  0.13   6.4    SW   25.2   27.3   27.3  1005.7  0.00   0.0   0.000   0.024   27.3    88   25.1   31.6   114    1    100.0    5 
 9/20/05  6:45p   25.2   25.3   25.2    85   22.5   1.6    SW  0.13   6.4    SW   25.2   27.3   27.3  1005.8  0.00   0.0   0.000   0.024   27.2    87   24.8   31.2   112    1     98.2    5 
 9/20/05  6:50p   25.2   25.3   25.2    85   22.5   1.6    SW  0.13   8.0   WSW   25.2   27.3   27.3  1005.8  0.00   0.0   0.000   0.024   27.2    87   24.8   31.2   113    1     99.1    5 
 9/20/05  6:55p   25.3   25.3   25.3    84   22.4   0.0    SW  0.00   4.8    SW   25.3   27.3   27.3  1005.8  0.00   0.0   0.000   0.024   27.3    87   24.9   31.4   114    1    100.0    5 
 9/20/05  7:00p   25.3   25.3   25.3    84   22.4   1.6   SSW  0.13   4.8   SSW   25.3   27.3   27.3  1005.8  0.00   0.0   0.000   0.024   27.3    87   24.9   31.4   114    1    100.0    5 
 9/20/05  7:05p   25.3   25.3   25.3    85   22.6   0.0   SSW  0.00   6.4   SSW   25.3   27.4   27.4  1005.8  0.00   0.0   0.000   0.024   27.4    87   25.0   31.8   113    1     99.1    5 
 9/20/05  7:10p   25.3   25.3   25.3    85   22.6   0.0    SW  0.00   1.6    SW   25.3   27.4   27.4  1005.8  0.00   0.0   0.000   0.024   27.4    87   25.1   31.9   113    1     99.1    5 
 9/20/05  7:15p   25.3   25.3   25.2    86   22.8   0.0    SW  0.00   1.6    SW   25.3   27.5   27.5  1005.8  0.00   0.0   0.000   0.024   27.5    87   25.1   32.1   114    1    100.0    5 
 9/20/05  7:20p   25.2   25.2   25.2    86   22.7   0.0   ---  0.00   0.0   ---   25.2   27.3   27.3  1005.8  0.00   0.0   0.000   0.024   27.5    87   25.1   32.1   114    1    100.0    5 
 9/20/05  7:25p   25.2   25.2   25.1    86   22.7   0.0   ---  0.00   0.0   ---   25.2   27.3   27.3  1005.8  0.00   0.0   0.000   0.024   27.5    87   25.1   32.1   114    1    100.0    5 
 9/20/05  7:30p   25.1   25.1   25.1    87   22.7   0.0    SW  0.00   1.6    SW   25.1   27.2   27.2  1005.8  0.00   0.0   0.000   0.023   27.5    87   25.1   32.1   114    1    100.0    5 
 9/20/05  7:35p   25.1   25.1   25.1    87   22.7   0.0    SW  0.00   1.6    SW   25.1   27.2   27.2  1005.8  0.00   0.0   0.000   0.023   27.5    87   25.1   32.1   114    1    100.0    5 
 9/20/05  7:40p   25.1   25.1   25.1    87   22.7   0.0    SW  0.00   3.2    SW   25.1   27.2   27.2  1005.8  0.00   0.0   0.000   0.023   27.6    87   25.3   32.4   112    1     98.2    5 
 9/20/05  7:45p   25.1   25.1   25.1    87   22.7   0.0   SSE  0.00   4.8   SSE   25.1   27.2   27.2  1005.8  0.00   0.0   0.000   0.023   27.6    87   25.3   32.4   111    1     97.4    5 
 9/20/05  7:50p   25.1   25.1   24.9    87   22.7   1.6    SW  0.13   4.8    SW   25.1   27.2   27.2  1005.8  0.00   0.0   0.000   0.023   27.6    87   25.3   32.4   113    1     99.1    5 
 9/20/05  7:55p   25.1   25.2   25.1    87   22.7   0.0   SSW  0.00   3.2   SSW   25.1   27.2   27.2  1005.8  0.00   0.0   0.000   0.023   27.7    87   25.4   32.7   114    1    100.0    5 
 9/20/05  8:00p   25.1   25.2   25.1    86   22.6   0.0     S  0.00   4.8     S   25.1   27.2   27.2  1005.8  0.00   0.0   0.000   0.024   27.6    86   25.1   32.2   113    1     99.1    5 
 9/20/05  8:05p   25.2   25.2   25.1    86   22.7   0.0   SSE  0.00   4.8   SSE   25.2   27.3   27.3  1005.8  0.00   0.0   0.000   0.024   27.6    86   25.1   32.2   114    1    100.0    5 
 9/20/05  8:10p   25.1   25.2   25.1    86   22.5   1.6   SSW  0.13   8.0   SSW   25.1   27.1   27.1  1005.8  0.00   0.0   0.000   0.023   27.6    86   25.1   32.2   114    1    100.0    5 
 9/20/05  8:15p   25.1   25.1   25.1    86   22.5   1.6   SSW  0.13   8.0   SSW   25.1   27.1   27.1  1005.9  0.00   0.0   0.000   0.023   27.6    86   25.1   32.2   114    1    100.0    5 
 9/20/05  8:20p   25.1   25.1   25.1    86   22.5   1.6   SSW  0.13   3.2     S   25.1   27.1   27.1  1005.9  0.00   0.0   0.000   0.023   27.6    86   25.1   32.2   114    1    100.0    5 
 9/20/05  8:25p   25.1   25.2   25.1    86   22.6   0.0    SW  0.00   3.2    SW   25.1   27.2   27.2  1005.9  0.00   0.0   0.000   0.024   27.6    86   25.1   32.2   114    1    100.0    5 
 9/20/05  8:30p   25.2   25.2   25.2    85   22.5   1.6   SSE  0.13   8.0   SSW   25.2   27.3   27.3  1006.1  0.00   0.0   0.000   0.024   27.5    86   24.9   31.9   114    1    100.0    5 
 9/20/05  8:35p   25.2   25.3   25.2    85   22.5   1.6   SSW  0.13   4.8    SW   25.2   27.3   27.3  1006.1  0.00   0.0   0.000   0.024   27.5    85   24.8   31.7   114    1    100.0    5 
 9/20/05  8:40p   25.3   25.3   25.3    84   22.4   1.6   SSW  0.13   6.4     S   25.3   27.3   27.3  1006.1  0.00   0.0   0.000   0.024   27.5    85   24.8   31.7   114    1    100.0    5 
 9/20/05  8:45p   25.3   25.3   25.3    84   22.4   1.6     S  0.13   8.0     S   25.3   27.3   27.3  1006.1  0.00   0.0   0.000   0.024   27.5    85   24.8   31.7   114    1    100.0    5 
 9/20/05  8:50p   25.3   25.3   25.3    84   22.4   0.0     S  0.00   3.2     S   25.3   27.4   27.4  1006.1  0.00   0.0   0.000   0.024   27.4    85   24.7   31.6   114    1    100.0    5 
 9/20/05  8:55p   25.3   25.3   25.3    85   22.6   0.0     S  0.00   1.6     S   25.3   27.4   27.4  1006.1  0.00   0.0   0.000   0.024   27.5    85   24.8   31.7   114    1    100.0    5 
 9/20/05  9:00p   25.2   25.3   25.2    86   22.7   0.0     S  0.00   3.2     S   25.2   27.4   27.4  1006.3  0.00   0.0   0.000   0.024   27.4    86   24.8   31.6   114    1    100.0    5 
 9/20/05  9:05p   25.1   25.2   25.1    86   22.6   0.0   SSE  0.00   3.2   SSE   25.1   27.2   27.2  1006.3  0.00   0.0   0.000   0.024   27.4    86   24.8   31.6   114    1    100.0    5 
 9/20/05  9:10p   25.0   25.1   24.9    87   22.7   0.0     S  0.00   1.6   SSW   25.0   27.1   27.1  1006.3  0.00   0.0   0.000   0.023   27.5    86   24.9   31.9   114    1    100.0    5 
 9/20/05  9:15p   24.9   24.9   24.8    87   22.6   0.0     S  0.00   1.6     S   24.9   26.9   26.9  1006.4  0.00   0.0   0.000   0.023   27.4    86   24.8   31.6   114    1    100.0    5 
 9/20/05  9:20p   24.8   24.8   24.8    87   22.5   0.0    SE  0.00   4.8    SE   24.8   26.8   26.8  1006.4  0.00   0.0   0.000   0.023   27.4    86   24.8   31.6   112    1     98.2    5 
 9/20/05  9:25p   24.8   24.8   24.8    87   22.5   0.0    SE  0.00   3.2    SE   24.8   26.8   26.8  1006.4  0.00   0.0   0.000   0.022   27.4    86   24.8   31.6   113    1     99.1    5 
 9/20/05  9:30p   24.8   24.8   24.8    87   22.5   0.0   SSE  0.00   3.2   SSE   24.8   26.8   26.8  1006.6  0.00   0.0   0.000   0.022   27.4    85   24.6   31.4   114    1    100.0    5 
 9/20/05  9:35p   24.8   24.8   24.8    87   22.5   0.0   SSE  0.00   3.2   SSE   24.8   26.8   26.8  1006.6  0.00   0.0   0.000   0.022   27.4    86   24.8   31.6   114    1    100.0    5 
 9/20/05  9:40p   24.7   24.8   24.7    88   22.5   0.0    SE  0.00   1.6    SE   24.7   26.7   26.7  1006.6  0.00   0.0   0.000   0.022   27.4    85   24.6   31.4   114    1    100.0    5 
 9/20/05  9:45p   24.7   24.7   24.7    88   22.5   0.0    SE  0.00   9.7    SE   24.7   26.7   26.7  1006.6  0.00   0.0   0.000   0.022   27.4    85   24.6   31.4   114    1    100.0    5 
 9/20/05  9:50p   24.7   24.7   24.7    88   22.5   1.6    SE  0.13   4.8    SE   24.7   26.7   26.7  1006.6  0.00   0.0   0.000   0.022   27.4    85   24.6   31.4   114    1    100.0    5 
 9/20/05  9:55p   24.7   24.7   24.7    88   22.5   0.0   SSE  0.00   3.2   SSE   24.7   26.7   26.7  1006.6  0.00   0.0   0.000   0.022   27.4    85   24.6   31.4   114    1    100.0    5 
 9/20/05 10:00p   24.7   24.7   24.7    88   22.5   0.0   SSE  0.00   3.2    SE   24.7   26.7   26.7  1006.7  0.00   0.0   0.000   0.022   27.4    85   24.6   31.4   114    1    100.0    5 
 9/20/05 10:05p   24.7   24.7   24.7    88   22.5   0.0    SE  0.00   4.8    SE   24.7   26.7   26.7  1006.7  0.00   0.0   0.000   0.022   27.3    85   24.5   31.2   114    1    100.0    5 
 9/20/05 10:10p   24.7   24.8   24.7    88   22.6   0.0   SSE  0.00   4.8   SSE   24.7   26.7   26.7  1006.7  0.00   0.0   0.000   0.022   27.4    85   24.6   31.4   114    1    100.0    5 
 9/20/05 10:15p   24.8   24.8   24.8    88   22.7   0.0   SSE  0.00   3.2     S   24.8   26.8   26.8  1006.4  0.00   0.0   0.000   0.022   27.3    86   24.8   31.4   112    1     98.2    5 
 9/20/05 10:20p   24.8   24.8   24.8    88   22.7   0.0    SE  0.00   3.2    SE   24.8   26.8   26.8  1006.4  0.00   0.0   0.000   0.022   27.3    86   24.7   31.3   112    1     98.2    5 
 9/20/05 10:25p   24.8   24.8   24.8    88   22.7   0.0   SSE  0.00   3.2   SSE   24.8   26.8   26.8  1006.4  0.00   0.0   0.000   0.022   27.3    86   24.7   31.3   113    1     99.1    5 
 9/20/05 10:30p   24.8   24.8   24.8    88   22.7   0.0   SSE  0.00   3.2   SSE   24.8   26.8   26.8  1006.4  0.00   0.0   0.000   0.022   27.3    86   24.7   31.3   114    1    100.0    5 
 9/20/05 10:35p   24.8   24.8   24.8    88   22.7   0.0   SSE  0.00   9.7    SE   24.8   26.8   26.8  1006.4  0.00   0.0   0.000   0.022   27.3    86   24.7   31.3   114    1    100.0    5 
 9/20/05 10:40p   24.8   24.8   24.8    88   22.7   0.0    SE  0.00   3.2    SE   24.8   26.8   26.8  1006.4  0.00   0.0   0.000   0.022   27.3    86   24.7   31.3   114    1    100.0    5 
 9/20/05 10:45p   24.8   24.8   24.8    88   22.7   0.0     E  0.00   1.6   ESE   24.8   26.9   26.9  1006.5  0.00   0.0   0.000   0.023   27.3    86   24.7   31.3   114    1    100.0    5 
 9/20/05 10:50p   24.8   24.8   24.8    88   22.7   0.0   ESE  0.00   3.2   ESE   24.8   26.9   26.9  1006.5  0.00   0.0   0.000   0.023   27.3    86   24.7   31.3   114    1    100.0    5 
 9/20/05 10:55p   24.8   24.8   24.8    88   22.7   0.0    SE  0.00   1.6   ESE   24.8   26.9   26.9  1006.5  0.00   0.0   0.000   0.023   27.4    86   24.8   31.6   114    1    100.0    5 
 9/20/05 11:00p   24.8   24.8   24.8    89   22.9   0.0   ---  0.00   0.0   ---   24.8   26.9   26.9  1006.4  0.00   0.0   0.000   0.023   27.4    86   24.8   31.6   114    1    100.0    5 
 9/20/05 11:05p   24.8   24.8   24.8    89   22.8   0.0   ---  0.00   0.0   ---   24.8   26.8   26.8  1006.4  0.00   0.0   0.000   0.022   27.4    86   24.8   31.6   114    1    100.0    5 
 9/20/05 11:10p   24.8   24.8   24.8    89   22.8   0.0   ---  0.00   0.0   ---   24.8   26.8   26.8  1006.4  0.00   0.0   0.000   0.022   27.4    86   24.9   31.7   113    1     99.1    5 
 9/20/05 11:15p   24.8   24.8   24.8    89   22.8   0.0   ESE  0.00   1.6   ESE   24.8   26.8   26.8  1006.2  0.00   0.0   0.000   0.022   27.4    86   24.9   31.7   114    1    100.0    5 
 9/20/05 11:20p   24.8   24.8   24.8    89   22.8   0.0   ---  0.00   0.0   ---   24.8   26.8   26.8  1006.2  0.00   0.0   0.000   0.022   27.4    86   24.8   31.6   115    1    100.0    5 
 9/20/05 11:25p   24.8   24.8   24.8    89   22.8   0.0   ESE  0.00   1.6   ESE   24.8   26.8   26.8  1006.2  0.00   0.0   0.000   0.022   27.4    86   24.9   31.7   114    1    100.0    5 
 9/20/05 11:30p   24.8   24.8   24.8    89   22.8   0.0   ---  0.00   0.0   ---   24.8   26.8   26.8  1006.1  0.00   0.0   0.000   0.022   27.4    86   24.8   31.6   114    1    100.0    5 
 9/20/05 11:35p   24.8   24.8   24.8    89   22.8   0.0   ---  0.00   0.0   ---   24.8   26.8   26.8  1006.1  0.00   0.0   0.000   0.022   27.4    86   24.8   31.6   113    1     99.1    5 
 9/20/05 11:40p   24.7   24.8   24.7    89   22.8   0.0   ESE  0.00   1.6   ESE   24.7   26.8   26.8  1006.1  0.00   0.0   0.000   0.022   27.4    86   24.8   31.6   114    1    100.0    5 
 9/20/05 11:45p   24.7   24.7   24.7    89   22.7   0.0   ---  0.00   0.0   ---   24.7   26.7   26.7  1005.9  0.00   0.0   0.000   0.022   27.4    86   24.8   31.6   114    1    100.0    5 
 9/20/05 11:50p   24.7   24.7   24.7    89   22.7   0.0   ESE  0.00   1.6   ESE   24.7   26.7   26.7  1005.9  0.00   0.0   0.000   0.022   27.4    86   24.8   31.6   114    1    100.0    5 
 9/20/05 11:55p   24.7   24.7   24.7    89   22.7   0.0   ESE  0.00   1.6   ESE   24.7   26.7   26.7  1005.9  0.00   0.0   0.000   0.022   27.4    86   24.8   31.6   114    1    100.0    5 
 9/21/05 12:00a   24.7   24.7   24.7    89   22.7   0.0   ESE  0.00   1.6   ESE   24.7   26.7   26.7  1005.6  0.00   0.0   0.000   0.022   27.4    86   24.8   31.6   114    1    100.0    5 
 9/21/05 12:05a   24.7   24.7   24.7    90   22.9   0.0   ---  0.00   0.0   ---   24.7   26.7   26.7  1005.6  0.00   0.0   0.000   0.022   27.4    86   24.8   31.6   110    1     96.5    5 
 9/21/05 12:10a   24.7   24.7   24.7    90   22.9   0.0   ESE  0.00   1.6   ESE   24.7   26.7   26.7  1005.6  0.00   0.0   0.000   0.022   27.5    87   25.1   32.1   114    1    100.0    5 
 9/21/05 12:15a   24.7   24.7   24.7    90   22.9   0.0    SE  0.00   1.6   ESE   24.7   26.7   26.7  1005.5  0.00   0.0   0.000   0.022   27.5    86   24.9   31.9   114    1    100.0    5 
 9/21/05 12:20a   24.7   24.7   24.7    90   22.9   0.0   ESE  0.00   1.6   ESE   24.7   26.7   26.7  1005.5  0.00   0.0   0.000   0.022   27.5    87   25.1   32.1   114    1    100.0    5 
 9/21/05 12:25a   24.7   24.7   24.7    90   22.9   0.0    SE  0.00   3.2    SE   24.7   26.7   26.7  1005.5  0.00   0.0   0.000   0.022   27.5    86   24.9   31.9   113    1     99.1    5 
 9/21/05 12:30a   24.7   24.8   24.7    90   23.0   0.0   SSW  0.00   1.6   SSW   24.7   26.8   26.8  1005.3  0.00   0.0   0.000   0.022   27.5    86   24.9   31.9   114    1    100.0    5 
 9/21/05 12:35a   24.8   24.8   24.8    90   23.1   1.6     S  0.13   8.0     N   24.8   26.9   26.9  1005.3  0.00   0.0   0.000   0.023   27.5    87   25.1   32.1   114    1    100.0    5 
 9/21/05 12:40a   24.9   24.9   24.8    90   23.2   0.0   SSE  0.00   3.2   SSE   24.9   27.2   27.2  1005.3  0.00   0.0   0.000   0.023   27.4    87   25.1   31.9   114    1    100.0    5 
 9/21/05 12:45a   25.0   25.2   24.9    90   23.2   1.6     S  0.13   4.8   SSW   25.0   27.2   27.2  1005.2  0.00   0.0   0.000   0.023   27.4    87   25.0   31.8   114    1    100.0    5 
 9/21/05 12:50a   25.4   25.6   25.2    89   23.4   4.8   SSW  0.40  12.9    SE   25.4   27.8   27.8  1005.2  0.00   0.0   0.000   0.024   27.3    88   25.2   31.8   113    1     99.1    5 
 9/21/05 12:55a   25.7   25.8   25.6    87   23.4   3.2   SSW  0.27  11.3     S   25.7   28.3   28.3  1005.2  0.00   0.0   0.000   0.026   27.3    88   25.1   31.6   114    1    100.0    5 
 9/21/05  1:00a   25.9   25.9   25.8    86   23.4   3.2   SSW  0.27   9.7     S   25.9   28.6   28.6  1004.8  0.00   0.0   0.000   0.026   27.3    89   25.3   31.8   115    1    100.0    5 
 9/21/05  1:05a   26.1   26.1   26.1    86   23.5   1.6   SSW  0.13   4.8   SSW   26.1   28.7   28.7  1004.8  0.00   0.0   0.000   0.027   27.2    89   25.2   31.6   114    1    100.0    5 
 9/21/05  1:10a   26.1   26.2   26.1    86   23.6   3.2     S  0.27  11.3   SSW   26.1   28.8   28.8  1004.8  0.00   0.0   0.000   0.027   27.3    89   25.3   31.8   114    1    100.0    5 
 9/21/05  1:15a   26.2   26.2   26.2    86   23.6   3.2   SSW  0.27  11.3   SSW   26.2   28.9   28.9  1004.8  0.00   0.0   0.000   0.027   27.3    90   25.5   31.9   114    1    100.0    5 
 9/21/05  1:20a   26.2   26.2   26.2    86   23.6   3.2     S  0.27   9.7    SW   26.2   28.9   28.9  1004.8  0.00   0.0   0.000   0.027   27.2    90   25.4   31.7   114    1    100.0    5 
 9/21/05  1:25a   26.2   26.2   26.2    85   23.4   4.8   SSW  0.40  11.3   SSW   26.2   28.8   28.8  1004.8  0.00   0.0   0.000   0.027   27.3    90   25.5   31.9   114    1    100.0    5 
 9/21/05  1:30a   26.1   26.2   26.1    85   23.4   1.6     S  0.13   9.7     S   26.1   28.7   28.7  1004.8  0.00   0.0   0.000   0.027   27.2    90   25.4   31.8   114    1    100.0    5 
 9/21/05  1:35a   26.1   26.1   25.9    85   23.3   1.6     S  0.13   8.0     S   26.1   28.6   28.6  1004.8  0.00   0.0   0.000   0.027   27.2    90   25.4   31.7   114    1    100.0    5 
 9/21/05  1:40a   25.9   25.9   25.9    86   23.4   1.6     S  0.13   8.0     S   25.9   28.6   28.6  1004.8  0.00   0.0   0.000   0.026   27.3    90   25.5   31.9   114    1    100.0    5 
 9/21/05  1:45a   25.9   25.9   25.8    86   23.4   0.0     S  0.00   8.0   SSW   25.9   28.4   28.4  1004.7  0.00   0.0   0.000   0.026   27.2    90   25.4   31.7   114    1    100.0    5 
 9/21/05  1:50a   25.8   25.8   25.8    86   23.3   0.0   SSE  0.00   4.8    SE   25.8   28.4   28.4  1004.7  0.00   0.0   0.000   0.026   27.2    90   25.4   31.7   114    1    100.0    5 
 9/21/05  1:55a   25.7   25.8   25.7    87   23.4   0.0   SSE  0.00   1.6   SSE   25.7   28.3   28.3  1004.7  0.00   0.0   0.000   0.026   27.3    90   25.5   31.9   114    1    100.0    5 
 9/21/05  2:00a   25.6   25.7   25.6    87   23.3   0.0   SSE  0.00   3.2     S   25.6   28.1   28.1  1004.6  0.00   0.0   0.000   0.025   27.2    90   25.4   31.7   114    1    100.0    5 
 9/21/05  2:05a   25.5   25.6   25.4    88   23.4   0.0   SSE  0.00   1.6   SSE   25.5   28.0   28.0  1004.6  0.00   0.0   0.000   0.025   27.2    90   25.4   31.7   114    1    100.0    5 
 9/21/05  2:10a   25.3   25.4   25.3    88   23.2   0.0   SSE  0.00   3.2   SSW   25.3   27.7   27.7  1004.6  0.00   0.0   0.000   0.024   27.2    90   25.4   31.7   114    1    100.0    5 
 9/21/05  2:15a   25.3   25.3   25.3    89   23.3   0.0     S  0.00   4.8     S   25.3   27.7   27.7  1004.6  0.00   0.0   0.000   0.024   27.2    90   25.4   31.7   114    1    100.0    5 
 9/21/05  2:20a   25.3   25.3   25.3    88   23.2   1.6   SSE  0.13   8.0   SSE   25.3   27.7   27.7  1004.6  0.00   0.0   0.000   0.024   27.2    90   25.4   31.7   113    1     99.1    5 
 9/21/05  2:25a   25.4   25.4   25.3    88   23.3   1.6     S  0.13   9.7   SSE   25.4   27.8   27.8  1004.6  0.00   0.0   0.000   0.024   27.2    90   25.4   31.7   114    1    100.0    5 
 9/21/05  2:30a   25.4   25.6   25.4    88   23.3   0.0   SSE  0.00   4.8    SE   25.4   27.9   27.9  1004.5  0.00   0.0   0.000   0.025   27.1    90   25.3   31.4   114    1    100.0    5 
 9/21/05  2:35a   25.5   25.6   25.4    88   23.4   0.0    SE  0.00   4.8    SE   25.5   28.0   28.0  1004.5  0.00   0.0   0.000   0.025   27.1    90   25.3   31.4   114    1    100.0    5 
 9/21/05  2:40a   25.4   25.4   25.4    88   23.3   0.0   SSE  0.00   4.8   SSE   25.4   27.9   27.9  1004.5  0.00   0.0   0.000   0.025   27.1    90   25.3   31.5   114    1    100.0    5 
 9/21/05  2:45a   25.4   25.4   25.4    87   23.1   0.0   SSE  0.00   3.2   SSE   25.4   27.8   27.8  1004.5  0.00   0.0   0.000   0.025   27.1    91   25.5   31.6   114    1    100.0    5 
 9/21/05  2:50a   25.4   25.4   25.4    87   23.1   0.0   ESE  0.00   3.2   ESE   25.4   27.8   27.8  1004.5  0.00   0.0   0.000   0.025   27.1    91   25.5   31.6   114    1    100.0    5 
 9/21/05  2:55a   25.4   25.4   25.4    87   23.1   0.0    SE  0.00   3.2   SSE   25.4   27.8   27.8  1004.5  0.00   0.0   0.000   0.025   27.2    91   25.6   31.8   114    1    100.0    5 
 9/21/05  3:00a   25.4   25.4   25.4    87   23.1   0.0   SSE  0.00   3.2   SSE   25.4   27.8   27.8  1004.6  0.00   0.0   0.000   0.025   27.1    91   25.5   31.6   114    1    100.0    5 
 9/21/05  3:05a   25.6   25.6   25.4    87   23.2   1.6   SSE  0.13   8.0   SSE   25.6   28.0   28.0  1004.6  0.00   0.0   0.000   0.025   27.1    90   25.3   31.4   114    1    100.0    5 
 9/21/05  3:10a   25.6   25.6   25.6    87   23.2   0.0   SSE  0.00   3.2   SSE   25.6   28.0   28.0  1004.6  0.00   0.0   0.000   0.025   27.2    90   25.4   31.7   114    1    100.0    5 
 9/21/05  3:15a   25.6   25.6   25.6    88   23.4   0.0   SSE  0.00   3.2   SSE   25.6   28.1   28.1  1004.7  0.00   0.0   0.000   0.025   27.1    91   25.5   31.7   114    1    100.0    5 
 9/21/05  3:20a   25.6   25.7   25.6    88   23.4   1.6     S  0.13   8.0     S   25.6   28.1   28.1  1004.7  0.00   0.0   0.000   0.025   27.1    91   25.5   31.6   114    1    100.0    5 
 9/21/05  3:25a   25.7   25.8   25.7    87   23.4   4.8     S  0.40  19.3   SSW   25.7   28.3   28.3  1004.7  0.00   0.0   0.000   0.026   27.2    91   25.6   31.8   114    1    100.0    5 
 9/21/05  3:30a   25.9   26.1   25.8    86   23.4   3.2     S  0.27   9.7     S   25.9   28.6   28.6  1004.5  0.00   0.0   0.000   0.026   27.2    91   25.6   31.8   114    1    100.0    5 
 9/21/05  3:35a   26.1   26.1   26.1    86   23.5   3.2   SSW  0.27  11.3     S   26.1   28.7   28.7  1004.5  0.00   0.0   0.000   0.027   27.2    91   25.6   31.8   114    1    100.0    5 
 9/21/05  3:40a   26.2   26.3   26.1    84   23.2   6.4   SSW  0.54  19.3   SSW   26.2   28.7   28.7  1004.5  0.00   0.0   0.000   0.027   27.2    91   25.6   31.8   114    1    100.0    5 
 9/21/05  3:45a   26.3   26.4   26.3    83   23.2   6.4     S  0.54  16.1   SSW   26.3   28.9   28.9  1004.7  0.00   0.0   0.000   0.028   27.2    91   25.6   31.8   114    1    100.0    5 
 9/21/05  3:50a   26.4   26.4   26.4    84   23.5   4.8   SSW  0.40  11.3    SW   26.4   29.1   29.1  1004.7  0.00   0.0   0.000   0.028   27.2    91   25.6   31.8   113    1     99.1    5 
 9/21/05  3:55a   26.3   26.4   26.3    85   23.6   6.4   SSW  0.54  17.7   SSW   26.3   29.2   29.2  1004.7  0.25   0.0   0.000   0.028   27.2    91   25.6   31.8   113    1     99.1    5 
 9/21/05  4:00a   26.1   26.3   26.1    86   23.6   4.8     S  0.40  16.1    SW   26.1   28.8   28.8  1004.5  0.00   0.0   0.000   0.027   27.2    91   25.6   31.8   113    1     99.1    5 
 9/21/05  4:05a   25.9   26.1   25.9    86   23.4   3.2     S  0.27  11.3   SSE   25.9   28.6   28.6  1004.5  0.00   0.0   0.000   0.026   27.2    91   25.6   31.8   112    1     98.2    5 
 9/21/05  4:10a   25.9   25.9   25.8    86   23.4   4.8    SW  0.40  12.9    SE   25.9   28.4   28.4  1004.5  0.00   0.0   0.000   0.026   27.2    91   25.6   31.8   113    1     99.1    5 
 9/21/05  4:15a   25.9   25.9   25.8    85   23.2   6.4     S  0.54  12.9   WSW   25.9   28.4   28.4  1004.7  0.00   0.0   0.000   0.026   27.3    91   25.7   32.1   114    1    100.0    5 
 9/21/05  4:20a   26.0   26.1   25.9    85   23.3   4.8     S  0.40  11.3    SW   26.0   28.6   28.6  1004.7  0.00   0.0   0.000   0.027   27.4    91   25.8   32.4   114    1    100.0    5 
 9/21/05  4:25a   26.1   26.1   26.1    85   23.3   3.2     S  0.27   8.0   SSE   26.1   28.6   28.6  1004.7  0.00   0.0   0.000   0.027   27.5    91   25.9   32.8   114    1    100.0    5 
 9/21/05  4:30a   26.1   26.1   26.1    86   23.5   0.0     S  0.00   6.4     S   26.1   28.7   28.7  1004.8  0.00   0.0   0.000   0.027   27.6    91   26.0   33.1   114    1    100.0    5 
 9/21/05  4:35a   25.9   26.1   25.9    86   23.4   1.6   SSW  0.13   3.2     S   25.9   28.6   28.6  1004.8  0.00   0.0   0.000   0.026   27.7    90   25.9   33.1   114    1    100.0    5 
 9/21/05  4:40a   25.9   25.9   25.9    86   23.4   3.2     S  0.27   8.0   SSW   25.9   28.6   28.6  1004.8  0.00   0.0   0.000   0.026   27.7    90   25.9   33.2   114    1    100.0    5 
 9/21/05  4:45a   25.9   25.9   25.9    86   23.4   1.6     S  0.13   9.7     S   25.9   28.6   28.6  1005.0  0.00   0.0   0.000   0.026   27.8    90   26.0   33.4   114    1    100.0    5 
 9/21/05  4:50a   26.0   26.1   25.9    86   23.5   1.6   SSE  0.13   4.8   SSW   26.0   28.7   28.7  1005.0  0.00   0.0   0.000   0.027   27.8    90   26.0   33.4   114    1    100.0    5 
 9/21/05  4:55a   26.1   26.1   26.1    86   23.5   1.6   SSW  0.13   4.8    SW   26.1   28.7   28.7  1005.0  0.00   0.0   0.000   0.027   27.9    90   26.1   33.7   114    1    100.0    5 
 9/21/05  5:00a   26.1   26.1   26.1    86   23.5   0.0     S  0.00   4.8   SSW   26.1   28.7   28.7  1005.3  0.00   0.0   0.000   0.027   27.9    89   25.9   33.5   114    1    100.0    5 
 9/21/05  5:05a   26.1   26.1   26.1    86   23.5   0.0     S  0.00   4.8   SSE   26.1   28.7   28.7  1005.3  0.00   0.0   0.000   0.027   27.9    89   25.9   33.5   112    1     98.2    5 
 9/21/05  5:10a   26.1   26.1   25.9    86   23.5   0.0     S  0.00   3.2   SSE   26.1   28.7   28.7  1005.3  0.00   0.0   0.000   0.027   28.0    89   26.0   33.8   114    1    100.0    5 
 9/21/05  5:15a   25.9   25.9   25.9    86   23.4   0.0     S  0.00   1.6     S   25.9   28.6   28.6  1005.3  0.00   0.0   0.000   0.026   28.0    89   26.0   33.8   114    1    100.0    5 
 9/21/05  5:20a   25.9   25.9   25.9    86   23.4   0.0     S  0.00   4.8   SSW   25.9   28.6   28.6  1005.3  0.00   0.0   0.000   0.026   28.1    89   26.1   34.1   113    1     99.1    5 
 9/21/05  5:25a   25.9   25.9   25.8    87   23.6   1.6     S  0.13   4.8     S   25.9   28.6   28.6  1005.3  0.00   0.0   0.000   0.026   28.1    89   26.1   34.1   114    1    100.0    5 
 9/21/05  5:30a   25.8   25.9   25.8    87   23.5   1.6     S  0.13   4.8     S   25.8   28.4   28.4  1005.2  0.00   0.0   0.000   0.026   28.1    89   26.1   34.1   113    1     99.1    5 
 9/21/05  5:35a   25.9   25.9   25.9    86   23.4   1.6   SSW  0.13   4.8     S   25.9   28.6   28.6  1005.2  0.00   0.0   0.000   0.026   28.1    89   26.1   34.1   113    1     99.1    5 
 9/21/05  5:40a   25.9   25.9   25.9    86   23.4   3.2     S  0.27   9.7     S   25.9   28.6   28.6  1005.2  0.00   0.0   0.000   0.026   28.2    88   26.0   34.1   114    1    100.0    5 
 9/21/05  5:45a   26.1   26.2   25.9    85   23.4   3.2   SSW  0.27  11.3   SSW   26.1   28.7   28.7  1005.3  0.00   0.0   0.000   0.027   28.1    88   25.9   33.9   114    1    100.0    5 
--------------------------------------------------------------------------------------------------------------------------------------------------------------------------------------------

Data observations can also be seen in a different graphing format at the Weather Underground website: 

(1) WeatherUnderground Typhoon2000.com Data: Sep 19, 2005
(2) WeatherUnderground Typhoon2000.com Data: Sep 20, 2005

::..Copyright 2005 Typhoon2000.com All Rights Reserved..::